PWSweather.com
Personal Weather Stations
Station Observations
EI4HQ
Cork Harbour, CobhIE

Cork HarbourCobhIE

Lat: 51.85, Lon: -8.29

Elevation: 252

Station Type: Davis Vantage Pro2

http://www.corkharbourweather.ie

High Low Average
Temperature 54.9°F12.7°C 48.0°F8.9°C 49.9°F9.9°C
Dew Point 52.2°F11.2°C 46.9°F8.3°C 48.7°F9.3°C
Winds 27.0 mph 43.5 kmh 6.0 mph 9.7 kmh 17.0 mph SSE27.4 kmh SSE
Wind Gusts 40.0 mph64.4 kmh 9.0 mph14.5 kmh 27.0 mph43.5 kmh
Humidity 98% 89% 95%
Pressure 29.84 in1010.5 mb 29.60 in1002.4 mb -
Precipitation 0.02 in0.5 mm - -
Hour Temp Dew Point Humidity Winds Wind Gusts Pressure Precip Precip Rate Daily Precip Total
12:00 AM 48.7°F9.3°C 47.7°F8.7°C 96% 8.0 mph S12.9 kmh S 12.0 mph19.3 kmh 29.83 in1010.2 mb 0.00 in0.0 mm 0.00 in0.0 mm 0.00 in0.0 mm
12:03 AM 48.7°F9.3°C 47.7°F8.7°C 96% 8.0 mph S12.9 kmh S 12.0 mph19.3 kmh 29.83 in1010.2 mb 0.00 in0.0 mm 0.00 in0.0 mm 0.00 in0.0 mm
12:06 AM 48.7°F9.3°C 47.7°F8.7°C 96% 8.0 mph S12.9 kmh S 12.0 mph19.3 kmh 29.83 in1010.2 mb 0.00 in0.0 mm 0.00 in0.0 mm 0.00 in0.0 mm
12:09 AM 48.7°F9.3°C 47.7°F8.7°C 96% 8.0 mph S12.9 kmh S 13.0 mph20.9 kmh 29.83 in1010.2 mb 0.00 in0.0 mm 0.00 in0.0 mm 0.00 in0.0 mm
12:12 AM 48.7°F9.3°C 47.7°F8.7°C 96% 7.0 mph S11.3 kmh S 13.0 mph20.9 kmh 29.83 in1010.2 mb 0.00 in0.0 mm 0.00 in0.0 mm 0.00 in0.0 mm
12:15 AM 48.6°F9.2°C 47.5°F8.6°C 96% 7.0 mph S11.3 kmh S 13.0 mph20.9 kmh 29.83 in1010.2 mb 0.00 in0.0 mm 0.00 in0.0 mm 0.00 in0.0 mm
12:18 AM 48.6°F9.2°C 47.5°F8.6°C 96% 7.0 mph S11.3 kmh S 11.0 mph17.7 kmh 29.83 in1010.2 mb 0.00 in0.0 mm 0.00 in0.0 mm 0.00 in0.0 mm
12:21 AM 48.6°F9.2°C 47.5°F8.6°C 96% 6.0 mph S9.7 kmh S 10.0 mph16.1 kmh 29.83 in1010.2 mb 0.00 in0.0 mm 0.00 in0.0 mm 0.00 in0.0 mm
12:24 AM 48.4°F9.1°C 47.3°F8.5°C 96% 6.0 mph S9.7 kmh S 10.0 mph16.1 kmh 29.83 in1010.2 mb 0.00 in0.0 mm 0.00 in0.0 mm 0.00 in0.0 mm
12:27 AM 48.4°F9.1°C 47.3°F8.5°C 96% 6.0 mph S9.7 kmh S 9.0 mph14.5 kmh 29.83 in1010.2 mb 0.00 in0.0 mm 0.00 in0.0 mm 0.00 in0.0 mm
12:30 AM 48.2°F9.0°C 47.1°F8.4°C 96% 6.0 mph S9.7 kmh S 10.0 mph16.1 kmh 29.83 in1010.2 mb 0.00 in0.0 mm 0.00 in0.0 mm 0.00 in0.0 mm
12:33 AM 48.0°F8.9°C 46.9°F8.3°C 96% 6.0 mph S9.7 kmh S 10.0 mph16.1 kmh 29.83 in1010.2 mb 0.00 in0.0 mm 0.00 in0.0 mm 0.00 in0.0 mm
12:36 AM 48.0°F8.9°C 46.9°F8.3°C 96% 6.0 mph S9.7 kmh S 10.0 mph16.1 kmh 29.83 in1010.2 mb 0.00 in0.0 mm 0.00 in0.0 mm 0.00 in0.0 mm
12:39 AM 48.0°F8.9°C 46.9°F8.3°C 96% 6.0 mph S9.7 kmh S 10.0 mph16.1 kmh 29.83 in1010.2 mb 0.00 in0.0 mm 0.00 in0.0 mm 0.00 in0.0 mm
12:42 AM 48.0°F8.9°C 46.9°F8.3°C 96% 7.0 mph S11.3 kmh S 10.0 mph16.1 kmh 29.83 in1010.2 mb 0.00 in0.0 mm 0.00 in0.0 mm 0.00 in0.0 mm
12:45 AM 48.0°F8.9°C 47.3°F8.5°C 97% 7.0 mph S11.3 kmh S 10.0 mph16.1 kmh 29.83 in1010.2 mb 0.00 in0.0 mm 0.00 in0.0 mm 0.00 in0.0 mm
12:48 AM 48.2°F9.0°C 47.3°F8.5°C 97% 6.0 mph S9.7 kmh S 10.0 mph16.1 kmh 29.83 in1010.2 mb 0.00 in0.0 mm 0.00 in0.0 mm 0.00 in0.0 mm
12:51 AM 48.2°F9.0°C 47.3°F8.5°C 97% 6.0 mph S9.7 kmh S 10.0 mph16.1 kmh 29.83 in1010.2 mb 0.00 in0.0 mm 0.00 in0.0 mm 0.00 in0.0 mm
12:54 AM 48.4°F9.1°C 47.5°F8.6°C 97% 7.0 mph S11.3 kmh S 10.0 mph16.1 kmh 29.83 in1010.2 mb 0.00 in0.0 mm 0.00 in0.0 mm 0.00 in0.0 mm
12:57 AM 48.4°F9.1°C 47.3°F8.5°C 96% 7.0 mph S11.3 kmh S 12.0 mph19.3 kmh 29.83 in1010.2 mb 0.00 in0.0 mm 0.00 in0.0 mm 0.00 in0.0 mm
01:00 AM 48.4°F9.1°C 47.3°F8.5°C 96% 8.0 mph SSE12.9 kmh SSE 12.0 mph19.3 kmh 29.83 in1010.2 mb 0.00 in0.0 mm 0.00 in0.0 mm 0.00 in0.0 mm
01:03 AM 48.4°F9.1°C 47.3°F8.5°C 96% 8.0 mph SSE12.9 kmh SSE 12.0 mph19.3 kmh 29.83 in1010.2 mb 0.00 in0.0 mm 0.00 in0.0 mm 0.00 in0.0 mm
01:06 AM 48.4°F9.1°C 47.3°F8.5°C 96% 7.0 mph SSE11.3 kmh SSE 10.0 mph16.1 kmh 29.83 in1010.2 mb 0.00 in0.0 mm 0.00 in0.0 mm 0.00 in0.0 mm
01:09 AM 48.4°F9.1°C 47.3°F8.5°C 96% 7.0 mph SSE11.3 kmh SSE 10.0 mph16.1 kmh 29.84 in1010.5 mb 0.00 in0.0 mm 0.00 in0.0 mm 0.00 in0.0 mm
01:12 AM 48.4°F9.1°C 47.3°F8.5°C 96% 7.0 mph SSE11.3 kmh SSE 10.0 mph16.1 kmh 29.84 in1010.5 mb 0.00 in0.0 mm 0.00 in0.0 mm 0.00 in0.0 mm
01:15 AM 48.4°F9.1°C 47.3°F8.5°C 96% 6.0 mph SSE9.7 kmh SSE 10.0 mph16.1 kmh 29.84 in1010.5 mb 0.00 in0.0 mm 0.00 in0.0 mm 0.00 in0.0 mm
01:18 AM 48.4°F9.1°C 47.3°F8.5°C 96% 6.0 mph SSE9.7 kmh SSE 11.0 mph17.7 kmh 29.84 in1010.5 mb 0.00 in0.0 mm 0.00 in0.0 mm 0.00 in0.0 mm
01:21 AM 48.4°F9.1°C 47.3°F8.5°C 96% 7.0 mph SSE11.3 kmh SSE 11.0 mph17.7 kmh 29.84 in1010.5 mb 0.00 in0.0 mm 0.00 in0.0 mm 0.00 in0.0 mm
01:24 AM 48.4°F9.1°C 47.7°F8.7°C 97% 7.0 mph SSE11.3 kmh SSE 11.0 mph17.7 kmh 29.84 in1010.5 mb 0.00 in0.0 mm 0.00 in0.0 mm 0.00 in0.0 mm
01:27 AM 48.4°F9.1°C 47.7°F8.7°C 97% 7.0 mph SSE11.3 kmh SSE 11.0 mph17.7 kmh 29.84 in1010.5 mb 0.00 in0.0 mm 0.00 in0.0 mm 0.00 in0.0 mm
01:30 AM 48.4°F9.1°C 47.7°F8.7°C 97% 7.0 mph SSE11.3 kmh SSE 11.0 mph17.7 kmh 29.84 in1010.5 mb 0.01 in0.3 mm 0.20 in5.1 mm 0.01 in0.3 mm
01:33 AM 48.4°F9.1°C 47.3°F8.5°C 96% 7.0 mph SSE11.3 kmh SSE 10.0 mph16.1 kmh 29.84 in1010.5 mb 0.01 in0.3 mm 0.00 in0.0 mm 0.01 in0.3 mm
01:36 AM 48.4°F9.1°C 47.7°F8.7°C 97% 8.0 mph SSE12.9 kmh SSE 11.0 mph17.7 kmh 29.84 in1010.5 mb 0.01 in0.3 mm 0.00 in0.0 mm 0.01 in0.3 mm
01:39 AM 48.6°F9.2°C 47.7°F8.7°C 97% 8.0 mph S12.9 kmh S 11.0 mph17.7 kmh 29.83 in1010.2 mb 0.01 in0.3 mm 0.00 in0.0 mm 0.01 in0.3 mm
01:42 AM 48.6°F9.2°C 47.7°F8.7°C 97% 7.0 mph SSE11.3 kmh SSE 11.0 mph17.7 kmh 29.83 in1010.2 mb 0.01 in0.3 mm 0.00 in0.0 mm 0.01 in0.3 mm
01:45 AM 48.6°F9.2°C 47.7°F8.7°C 97% 7.0 mph SSE11.3 kmh SSE 11.0 mph17.7 kmh 29.84 in1010.5 mb 0.01 in0.3 mm 0.00 in0.0 mm 0.01 in0.3 mm
01:48 AM 48.6°F9.2°C 47.8°F8.8°C 97% 7.0 mph SSE11.3 kmh SSE 11.0 mph17.7 kmh 29.84 in1010.5 mb 0.01 in0.3 mm 0.00 in0.0 mm 0.01 in0.3 mm
01:51 AM 48.6°F9.2°C 47.8°F8.8°C 97% 7.0 mph S11.3 kmh S 12.0 mph19.3 kmh 29.84 in1010.5 mb 0.01 in0.3 mm 0.00 in0.0 mm 0.01 in0.3 mm
01:54 AM 48.6°F9.2°C 47.8°F8.8°C 97% 6.0 mph S9.7 kmh S 12.0 mph19.3 kmh 29.84 in1010.5 mb 0.01 in0.3 mm 0.00 in0.0 mm 0.01 in0.3 mm
01:57 AM 48.6°F9.2°C 47.8°F8.8°C 97% 7.0 mph S11.3 kmh S 12.0 mph19.3 kmh 29.84 in1010.5 mb 0.01 in0.3 mm 0.00 in0.0 mm 0.01 in0.3 mm
02:00 AM 48.6°F9.2°C 47.8°F8.8°C 97% 7.0 mph S11.3 kmh S 12.0 mph19.3 kmh 29.84 in1010.5 mb 0.01 in0.3 mm 0.00 in0.0 mm 0.01 in0.3 mm
02:03 AM 48.6°F9.2°C 47.8°F8.8°C 97% 8.0 mph S12.9 kmh S 12.0 mph19.3 kmh 29.84 in1010.5 mb 0.01 in0.3 mm 0.00 in0.0 mm 0.01 in0.3 mm
02:06 AM 48.6°F9.2°C 47.8°F8.8°C 97% 8.0 mph S12.9 kmh S 12.0 mph19.3 kmh 29.84 in1010.5 mb 0.01 in0.3 mm 0.00 in0.0 mm 0.01 in0.3 mm
02:09 AM 48.6°F9.2°C 47.8°F8.8°C 97% 8.0 mph S12.9 kmh S 12.0 mph19.3 kmh 29.84 in1010.5 mb 0.01 in0.3 mm 0.00 in0.0 mm 0.01 in0.3 mm
02:12 AM 48.6°F9.2°C 47.8°F8.8°C 97% 7.0 mph S11.3 kmh S 11.0 mph17.7 kmh 29.84 in1010.5 mb 0.01 in0.3 mm 0.00 in0.0 mm 0.01 in0.3 mm
02:15 AM 48.6°F9.2°C 47.8°F8.8°C 97% 7.0 mph S11.3 kmh S 11.0 mph17.7 kmh 29.84 in1010.5 mb 0.01 in0.3 mm 0.00 in0.0 mm 0.01 in0.3 mm
02:18 AM 48.6°F9.2°C 47.8°F8.8°C 97% 7.0 mph S11.3 kmh S 11.0 mph17.7 kmh 29.84 in1010.5 mb 0.01 in0.3 mm 0.00 in0.0 mm 0.01 in0.3 mm
02:21 AM 48.6°F9.2°C 47.8°F8.8°C 97% 7.0 mph S11.3 kmh S 11.0 mph17.7 kmh 29.84 in1010.5 mb 0.01 in0.3 mm 0.00 in0.0 mm 0.01 in0.3 mm
02:24 AM 48.6°F9.2°C 47.8°F8.8°C 97% 7.0 mph S11.3 kmh S 11.0 mph17.7 kmh 29.84 in1010.5 mb 0.01 in0.3 mm 0.00 in0.0 mm 0.01 in0.3 mm
02:27 AM 48.6°F9.2°C 47.8°F8.8°C 97% 8.0 mph S12.9 kmh S 12.0 mph19.3 kmh 29.84 in1010.5 mb 0.01 in0.3 mm 0.00 in0.0 mm 0.01 in0.3 mm
02:30 AM 48.6°F9.2°C 47.8°F8.8°C 97% 8.0 mph S12.9 kmh S 12.0 mph19.3 kmh 29.84 in1010.5 mb 0.00 in0.0 mm 0.00 in0.0 mm 0.01 in0.3 mm
02:33 AM 48.6°F9.2°C 47.8°F8.8°C 97% 8.0 mph S12.9 kmh S 13.0 mph20.9 kmh 29.83 in1010.2 mb 0.00 in0.0 mm 0.00 in0.0 mm 0.01 in0.3 mm
02:36 AM 48.6°F9.2°C 47.8°F8.8°C 97% 8.0 mph S12.9 kmh S 14.0 mph22.5 kmh 29.83 in1010.2 mb 0.00 in0.0 mm 0.00 in0.0 mm 0.01 in0.3 mm
02:39 AM 48.6°F9.2°C 47.8°F8.8°C 97% 8.0 mph S12.9 kmh S 14.0 mph22.5 kmh 29.83 in1010.2 mb 0.00 in0.0 mm 0.00 in0.0 mm 0.01 in0.3 mm
02:42 AM 48.6°F9.2°C 47.8°F8.8°C 97% 8.0 mph S12.9 kmh S 14.0 mph22.5 kmh 29.83 in1010.2 mb 0.00 in0.0 mm 0.00 in0.0 mm 0.01 in0.3 mm
02:45 AM 48.7°F9.3°C 47.8°F8.8°C 97% 7.0 mph S11.3 kmh S 13.0 mph20.9 kmh 29.83 in1010.2 mb 0.00 in0.0 mm 0.00 in0.0 mm 0.01 in0.3 mm
02:48 AM 48.7°F9.3°C 47.8°F8.8°C 97% 8.0 mph S12.9 kmh S 13.0 mph20.9 kmh 29.83 in1010.2 mb 0.00 in0.0 mm 0.00 in0.0 mm 0.01 in0.3 mm
02:51 AM 48.7°F9.3°C 47.8°F8.8°C 97% 8.0 mph S12.9 kmh S 16.0 mph25.7 kmh 29.83 in1010.2 mb 0.00 in0.0 mm 0.00 in0.0 mm 0.01 in0.3 mm
02:54 AM 48.7°F9.3°C 47.8°F8.8°C 97% 9.0 mph S14.5 kmh S 16.0 mph25.7 kmh 29.83 in1010.2 mb 0.00 in0.0 mm 0.00 in0.0 mm 0.01 in0.3 mm
02:57 AM 48.7°F9.3°C 48.0°F8.9°C 97% 9.0 mph S14.5 kmh S 16.0 mph25.7 kmh 29.83 in1010.2 mb 0.00 in0.0 mm 0.00 in0.0 mm 0.01 in0.3 mm
03:00 AM 48.7°F9.3°C 48.0°F8.9°C 97% 9.0 mph S14.5 kmh S 17.0 mph27.4 kmh 29.83 in1010.2 mb 0.00 in0.0 mm 0.00 in0.0 mm 0.01 in0.3 mm
03:03 AM 48.7°F9.3°C 47.8°F8.8°C 97% 9.0 mph S14.5 kmh S 17.0 mph27.4 kmh 29.83 in1010.2 mb 0.00 in0.0 mm 0.00 in0.0 mm 0.01 in0.3 mm
03:06 AM 48.7°F9.3°C 47.8°F8.8°C 97% 9.0 mph S14.5 kmh S 17.0 mph27.4 kmh 29.83 in1010.2 mb 0.00 in0.0 mm 0.00 in0.0 mm 0.01 in0.3 mm
03:09 AM 48.7°F9.3°C 47.8°F8.8°C 97% 8.0 mph S12.9 kmh S 12.0 mph19.3 kmh 29.83 in1010.2 mb 0.00 in0.0 mm 0.00 in0.0 mm 0.01 in0.3 mm
03:12 AM 48.6°F9.2°C 47.8°F8.8°C 97% 8.0 mph S12.9 kmh S 14.0 mph22.5 kmh 29.83 in1010.2 mb 0.00 in0.0 mm 0.00 in0.0 mm 0.01 in0.3 mm
03:15 AM 48.6°F9.2°C 47.8°F8.8°C 97% 9.0 mph S14.5 kmh S 14.0 mph22.5 kmh 29.82 in1009.8 mb 0.00 in0.0 mm 0.00 in0.0 mm 0.01 in0.3 mm
03:18 AM 48.6°F9.2°C 47.8°F8.8°C 97% 9.0 mph S14.5 kmh S 14.0 mph22.5 kmh 29.82 in1009.8 mb 0.00 in0.0 mm 0.00 in0.0 mm 0.01 in0.3 mm
03:21 AM 48.7°F9.3°C 47.8°F8.8°C 97% 9.0 mph S14.5 kmh S 15.0 mph24.1 kmh 29.82 in1009.8 mb 0.00 in0.0 mm 0.00 in0.0 mm 0.01 in0.3 mm
03:24 AM 48.7°F9.3°C 47.8°F8.8°C 97% 9.0 mph S14.5 kmh S 15.0 mph24.1 kmh 29.82 in1009.8 mb 0.00 in0.0 mm 0.00 in0.0 mm 0.01 in0.3 mm
03:27 AM 48.6°F9.2°C 47.8°F8.8°C 97% 9.0 mph S14.5 kmh S 15.0 mph24.1 kmh 29.82 in1009.8 mb 0.00 in0.0 mm 0.00 in0.0 mm 0.01 in0.3 mm
03:30 AM 48.6°F9.2°C 47.8°F8.8°C 97% 9.0 mph S14.5 kmh S 15.0 mph24.1 kmh 29.82 in1009.8 mb 0.00 in0.0 mm 0.00 in0.0 mm 0.01 in0.3 mm
03:33 AM 48.6°F9.2°C 47.8°F8.8°C 97% 9.0 mph S14.5 kmh S 15.0 mph24.1 kmh 29.82 in1009.8 mb 0.00 in0.0 mm 0.00 in0.0 mm 0.01 in0.3 mm
03:36 AM 48.7°F9.3°C 47.8°F8.8°C 97% 9.0 mph S14.5 kmh S 15.0 mph24.1 kmh 29.82 in1009.8 mb 0.00 in0.0 mm 0.00 in0.0 mm 0.01 in0.3 mm
03:39 AM 48.7°F9.3°C 47.8°F8.8°C 97% 9.0 mph S14.5 kmh S 15.0 mph24.1 kmh 29.82 in1009.8 mb 0.00 in0.0 mm 0.00 in0.0 mm 0.01 in0.3 mm
03:42 AM 48.7°F9.3°C 47.8°F8.8°C 97% 9.0 mph S14.5 kmh S 15.0 mph24.1 kmh 29.82 in1009.8 mb 0.00 in0.0 mm 0.00 in0.0 mm 0.01 in0.3 mm
03:45 AM 48.7°F9.3°C 47.8°F8.8°C 97% 8.0 mph S12.9 kmh S 14.0 mph22.5 kmh 29.82 in1009.8 mb 0.00 in0.0 mm 0.00 in0.0 mm 0.01 in0.3 mm
03:48 AM 48.7°F9.3°C 47.8°F8.8°C 97% 8.0 mph S12.9 kmh S 12.0 mph19.3 kmh 29.82 in1009.8 mb 0.00 in0.0 mm 0.00 in0.0 mm 0.01 in0.3 mm
03:51 AM 48.7°F9.3°C 47.8°F8.8°C 97% 8.0 mph S12.9 kmh S 12.0 mph19.3 kmh 29.82 in1009.8 mb 0.00 in0.0 mm 0.00 in0.0 mm 0.01 in0.3 mm
03:54 AM 48.7°F9.3°C 47.8°F8.8°C 97% 8.0 mph S12.9 kmh S 14.0 mph22.5 kmh 29.82 in1009.8 mb 0.00 in0.0 mm 0.00 in0.0 mm 0.01 in0.3 mm
03:57 AM 48.7°F9.3°C 47.8°F8.8°C 97% 9.0 mph S14.5 kmh S 14.0 mph22.5 kmh 29.82 in1009.8 mb 0.00 in0.0 mm 0.00 in0.0 mm 0.01 in0.3 mm
04:00 AM 48.7°F9.3°C 47.8°F8.8°C 97% 9.0 mph S14.5 kmh S 14.0 mph22.5 kmh 29.82 in1009.8 mb 0.00 in0.0 mm 0.00 in0.0 mm 0.01 in0.3 mm
04:03 AM 48.7°F9.3°C 47.8°F8.8°C 97% 9.0 mph S14.5 kmh S 14.0 mph22.5 kmh 29.82 in1009.8 mb 0.00 in0.0 mm 0.00 in0.0 mm 0.01 in0.3 mm
04:06 AM 48.7°F9.3°C 47.8°F8.8°C 97% 8.0 mph S12.9 kmh S 13.0 mph20.9 kmh 29.82 in1009.8 mb 0.00 in0.0 mm 0.00 in0.0 mm 0.01 in0.3 mm
04:09 AM 48.7°F9.3°C 48.0°F8.9°C 97% 8.0 mph S12.9 kmh S 12.0 mph19.3 kmh 29.82 in1009.8 mb 0.00 in0.0 mm 0.00 in0.0 mm 0.01 in0.3 mm
04:12 AM 48.7°F9.3°C 47.8°F8.8°C 97% 8.0 mph S12.9 kmh S 12.0 mph19.3 kmh 29.82 in1009.8 mb 0.00 in0.0 mm 0.00 in0.0 mm 0.01 in0.3 mm
04:15 AM 48.7°F9.3°C 47.8°F8.8°C 97% 8.0 mph S12.9 kmh S 12.0 mph19.3 kmh 29.82 in1009.8 mb 0.00 in0.0 mm 0.00 in0.0 mm 0.01 in0.3 mm
04:18 AM 48.7°F9.3°C 47.8°F8.8°C 97% 8.0 mph S12.9 kmh S 15.0 mph24.1 kmh 29.82 in1009.8 mb 0.00 in0.0 mm 0.00 in0.0 mm 0.01 in0.3 mm
04:21 AM 48.6°F9.2°C 47.8°F8.8°C 97% 9.0 mph S14.5 kmh S 15.0 mph24.1 kmh 29.82 in1009.8 mb 0.00 in0.0 mm 0.00 in0.0 mm 0.01 in0.3 mm
04:24 AM 48.6°F9.2°C 47.8°F8.8°C 97% 9.0 mph S14.5 kmh S 17.0 mph27.4 kmh 29.82 in1009.8 mb 0.00 in0.0 mm 0.00 in0.0 mm 0.01 in0.3 mm
04:27 AM 48.6°F9.2°C 47.7°F8.7°C 97% 9.0 mph S14.5 kmh S 17.0 mph27.4 kmh 29.82 in1009.8 mb 0.00 in0.0 mm 0.00 in0.0 mm 0.01 in0.3 mm
04:30 AM 48.6°F9.2°C 47.7°F8.7°C 97% 9.0 mph S14.5 kmh S 17.0 mph27.4 kmh 29.82 in1009.8 mb 0.00 in0.0 mm 0.00 in0.0 mm 0.01 in0.3 mm
04:33 AM 48.6°F9.2°C 47.7°F8.7°C 97% 9.0 mph S14.5 kmh S 15.0 mph24.1 kmh 29.82 in1009.8 mb 0.00 in0.0 mm 0.00 in0.0 mm 0.01 in0.3 mm
04:36 AM 48.4°F9.1°C 47.7°F8.7°C 97% 9.0 mph S14.5 kmh S 15.0 mph24.1 kmh 29.82 in1009.8 mb 0.00 in0.0 mm 0.00 in0.0 mm 0.01 in0.3 mm
04:39 AM 48.4°F9.1°C 47.7°F8.7°C 97% 8.0 mph S12.9 kmh S 15.0 mph24.1 kmh 29.82 in1009.8 mb 0.00 in0.0 mm 0.00 in0.0 mm 0.01 in0.3 mm
04:42 AM 48.4°F9.1°C 47.7°F8.7°C 97% 8.0 mph S12.9 kmh S 15.0 mph24.1 kmh 29.82 in1009.8 mb 0.00 in0.0 mm 0.00 in0.0 mm 0.01 in0.3 mm
04:45 AM 48.4°F9.1°C 47.7°F8.7°C 97% 9.0 mph S14.5 kmh S 15.0 mph24.1 kmh 29.82 in1009.8 mb 0.00 in0.0 mm 0.00 in0.0 mm 0.01 in0.3 mm
04:48 AM 48.6°F9.2°C 47.7°F8.7°C 97% 8.0 mph S12.9 kmh S 13.0 mph20.9 kmh 29.82 in1009.8 mb 0.00 in0.0 mm 0.00 in0.0 mm 0.01 in0.3 mm
04:51 AM 48.6°F9.2°C 47.7°F8.7°C 97% 9.0 mph S14.5 kmh S 13.0 mph20.9 kmh 29.82 in1009.8 mb 0.00 in0.0 mm 0.00 in0.0 mm 0.01 in0.3 mm
04:54 AM 48.6°F9.2°C 47.7°F8.7°C 97% 9.0 mph S14.5 kmh S 14.0 mph22.5 kmh 29.82 in1009.8 mb 0.00 in0.0 mm 0.00 in0.0 mm 0.01 in0.3 mm
04:57 AM 48.6°F9.2°C 47.8°F8.8°C 97% 9.0 mph S14.5 kmh S 14.0 mph22.5 kmh 29.82 in1009.8 mb 0.00 in0.0 mm 0.00 in0.0 mm 0.01 in0.3 mm
05:00 AM 48.6°F9.2°C 47.8°F8.8°C 97% 9.0 mph SSE14.5 kmh SSE 14.0 mph22.5 kmh 29.81 in1009.5 mb 0.00 in0.0 mm 0.00 in0.0 mm 0.01 in0.3 mm
05:03 AM 48.6°F9.2°C 47.8°F8.8°C 97% 10.0 mph SSE16.1 kmh SSE 14.0 mph22.5 kmh 29.82 in1009.8 mb 0.00 in0.0 mm 0.00 in0.0 mm 0.01 in0.3 mm
05:06 AM 48.6°F9.2°C 47.8°F8.8°C 97% 10.0 mph SSE16.1 kmh SSE 14.0 mph22.5 kmh 29.81 in1009.5 mb 0.00 in0.0 mm 0.00 in0.0 mm 0.01 in0.3 mm
05:09 AM 48.6°F9.2°C 47.8°F8.8°C 97% 9.0 mph SSE14.5 kmh SSE 13.0 mph20.9 kmh 29.81 in1009.5 mb 0.00 in0.0 mm 0.00 in0.0 mm 0.01 in0.3 mm
05:12 AM 48.6°F9.2°C 47.8°F8.8°C 97% 9.0 mph SSE14.5 kmh SSE 13.0 mph20.9 kmh 29.81 in1009.5 mb 0.00 in0.0 mm 0.00 in0.0 mm 0.01 in0.3 mm
05:15 AM 48.6°F9.2°C 47.8°F8.8°C 97% 9.0 mph S14.5 kmh S 13.0 mph20.9 kmh 29.81 in1009.5 mb 0.00 in0.0 mm 0.00 in0.0 mm 0.01 in0.3 mm
05:18 AM 48.6°F9.2°C 47.8°F8.8°C 97% 10.0 mph S16.1 kmh S 16.0 mph25.7 kmh 29.81 in1009.5 mb 0.00 in0.0 mm 0.00 in0.0 mm 0.01 in0.3 mm
05:21 AM 48.6°F9.2°C 47.8°F8.8°C 97% 10.0 mph S16.1 kmh S 17.0 mph27.4 kmh 29.81 in1009.5 mb 0.00 in0.0 mm 0.00 in0.0 mm 0.01 in0.3 mm
05:24 AM 48.7°F9.3°C 47.8°F8.8°C 97% 10.0 mph SSE16.1 kmh SSE 17.0 mph27.4 kmh 29.81 in1009.5 mb 0.00 in0.0 mm 0.00 in0.0 mm 0.01 in0.3 mm
05:27 AM 48.6°F9.2°C 47.8°F8.8°C 97% 10.0 mph SSE16.1 kmh SSE 17.0 mph27.4 kmh 29.82 in1009.8 mb 0.00 in0.0 mm 0.00 in0.0 mm 0.01 in0.3 mm
05:30 AM 48.6°F9.2°C 47.8°F8.8°C 97% 10.0 mph SSE16.1 kmh SSE 15.0 mph24.1 kmh 29.82 in1009.8 mb 0.00 in0.0 mm 0.00 in0.0 mm 0.01 in0.3 mm
05:33 AM 48.6°F9.2°C 47.8°F8.8°C 97% 11.0 mph SSE17.7 kmh SSE 16.0 mph25.7 kmh 29.82 in1009.8 mb 0.00 in0.0 mm 0.00 in0.0 mm 0.01 in0.3 mm
05:36 AM 48.6°F9.2°C 47.8°F8.8°C 97% 11.0 mph SSE17.7 kmh SSE 16.0 mph25.7 kmh 29.82 in1009.8 mb 0.00 in0.0 mm 0.00 in0.0 mm 0.01 in0.3 mm
05:39 AM 48.6°F9.2°C 47.7°F8.7°C 97% 11.0 mph SSE17.7 kmh SSE 16.0 mph25.7 kmh 29.82 in1009.8 mb 0.00 in0.0 mm 0.00 in0.0 mm 0.01 in0.3 mm
05:42 AM 48.6°F9.2°C 47.7°F8.7°C 97% 11.0 mph SSE17.7 kmh SSE 16.0 mph25.7 kmh 29.82 in1009.8 mb 0.00 in0.0 mm 0.00 in0.0 mm 0.01 in0.3 mm
05:45 AM 48.6°F9.2°C 47.7°F8.7°C 97% 11.0 mph SSE17.7 kmh SSE 16.0 mph25.7 kmh 29.82 in1009.8 mb 0.00 in0.0 mm 0.00 in0.0 mm 0.01 in0.3 mm
05:48 AM 48.6°F9.2°C 47.7°F8.7°C 97% 11.0 mph SSE17.7 kmh SSE 17.0 mph27.4 kmh 29.82 in1009.8 mb 0.00 in0.0 mm 0.00 in0.0 mm 0.01 in0.3 mm
05:51 AM 48.6°F9.2°C 47.7°F8.7°C 97% 12.0 mph SSE19.3 kmh SSE 18.0 mph29.0 kmh 29.82 in1009.8 mb 0.00 in0.0 mm 0.00 in0.0 mm 0.01 in0.3 mm
05:54 AM 48.6°F9.2°C 47.7°F8.7°C 97% 11.0 mph SSE17.7 kmh SSE 18.0 mph29.0 kmh 29.82 in1009.8 mb 0.00 in0.0 mm 0.00 in0.0 mm 0.01 in0.3 mm
05:57 AM 48.6°F9.2°C 47.7°F8.7°C 97% 11.0 mph S17.7 kmh S 18.0 mph29.0 kmh 29.83 in1010.2 mb 0.00 in0.0 mm 0.00 in0.0 mm 0.01 in0.3 mm
06:00 AM 48.6°F9.2°C 47.7°F8.7°C 97% 10.0 mph S16.1 kmh S 16.0 mph25.7 kmh 29.83 in1010.2 mb 0.00 in0.0 mm 0.00 in0.0 mm 0.01 in0.3 mm
06:03 AM 48.6°F9.2°C 47.7°F8.7°C 97% 10.0 mph SSE16.1 kmh SSE 16.0 mph25.7 kmh 29.82 in1009.8 mb 0.00 in0.0 mm 0.00 in0.0 mm 0.01 in0.3 mm
06:06 AM 48.6°F9.2°C 47.7°F8.7°C 97% 10.0 mph S16.1 kmh S 14.0 mph22.5 kmh 29.83 in1010.2 mb 0.00 in0.0 mm 0.00 in0.0 mm 0.01 in0.3 mm
06:09 AM 48.6°F9.2°C 47.7°F8.7°C 97% 10.0 mph SSE16.1 kmh SSE 14.0 mph22.5 kmh 29.83 in1010.2 mb 0.00 in0.0 mm 0.00 in0.0 mm 0.01 in0.3 mm
06:12 AM 48.6°F9.2°C 47.7°F8.7°C 97% 10.0 mph SSE16.1 kmh SSE 14.0 mph22.5 kmh 29.83 in1010.2 mb 0.00 in0.0 mm 0.00 in0.0 mm 0.01 in0.3 mm
06:15 AM 48.6°F9.2°C 47.8°F8.8°C 97% 10.0 mph SSE16.1 kmh SSE 15.0 mph24.1 kmh 29.83 in1010.2 mb 0.00 in0.0 mm 0.00 in0.0 mm 0.01 in0.3 mm
06:18 AM 48.6°F9.2°C 47.8°F8.8°C 97% 10.0 mph S16.1 kmh S 15.0 mph24.1 kmh 29.83 in1010.2 mb 0.00 in0.0 mm 0.00 in0.0 mm 0.01 in0.3 mm
06:21 AM 48.6°F9.2°C 47.8°F8.8°C 97% 10.0 mph SSE16.1 kmh SSE 16.0 mph25.7 kmh 29.84 in1010.5 mb 0.00 in0.0 mm 0.00 in0.0 mm 0.01 in0.3 mm
06:24 AM 48.6°F9.2°C 47.8°F8.8°C 97% 10.0 mph SSE16.1 kmh SSE 16.0 mph25.7 kmh 29.84 in1010.5 mb 0.00 in0.0 mm 0.00 in0.0 mm 0.01 in0.3 mm
06:27 AM 48.6°F9.2°C 47.8°F8.8°C 97% 11.0 mph SSE17.7 kmh SSE 17.0 mph27.4 kmh 29.83 in1010.2 mb 0.00 in0.0 mm 0.00 in0.0 mm 0.01 in0.3 mm
06:30 AM 48.6°F9.2°C 47.7°F8.7°C 97% 12.0 mph SSE19.3 kmh SSE 17.0 mph27.4 kmh 29.83 in1010.2 mb 0.00 in0.0 mm 0.00 in0.0 mm 0.01 in0.3 mm
06:33 AM 48.6°F9.2°C 47.7°F8.7°C 97% 12.0 mph SSE19.3 kmh SSE 17.0 mph27.4 kmh 29.83 in1010.2 mb 0.00 in0.0 mm 0.00 in0.0 mm 0.01 in0.3 mm
06:36 AM 48.6°F9.2°C 47.7°F8.7°C 97% 12.0 mph SSE19.3 kmh SSE 18.0 mph29.0 kmh 29.83 in1010.2 mb 0.00 in0.0 mm 0.00 in0.0 mm 0.01 in0.3 mm
06:39 AM 48.4°F9.1°C 47.7°F8.7°C 97% 12.0 mph SSE19.3 kmh SSE 18.0 mph29.0 kmh 29.83 in1010.2 mb 0.00 in0.0 mm 0.00 in0.0 mm 0.01 in0.3 mm
06:42 AM 48.4°F9.1°C 47.7°F8.7°C 97% 13.0 mph SSE20.9 kmh SSE 18.0 mph29.0 kmh 29.83 in1010.2 mb 0.00 in0.0 mm 0.00 in0.0 mm 0.01 in0.3 mm
06:45 AM 48.6°F9.2°C 48.0°F8.9°C 98% 12.0 mph SSE19.3 kmh SSE 17.0 mph27.4 kmh 29.83 in1010.2 mb 0.00 in0.0 mm 0.00 in0.0 mm 0.01 in0.3 mm
06:48 AM 48.6°F9.2°C 48.0°F8.9°C 98% 12.0 mph SSE19.3 kmh SSE 17.0 mph27.4 kmh 29.83 in1010.2 mb 0.00 in0.0 mm 0.00 in0.0 mm 0.01 in0.3 mm
06:51 AM 48.6°F9.2°C 48.0°F8.9°C 98% 12.0 mph SSE19.3 kmh SSE 17.0 mph27.4 kmh 29.83 in1010.2 mb 0.00 in0.0 mm 0.00 in0.0 mm 0.01 in0.3 mm
06:54 AM 48.6°F9.2°C 48.0°F8.9°C 98% 12.0 mph SSE19.3 kmh SSE 17.0 mph27.4 kmh 29.83 in1010.2 mb 0.00 in0.0 mm 0.00 in0.0 mm 0.01 in0.3 mm
06:57 AM 48.6°F9.2°C 48.0°F8.9°C 98% 11.0 mph SSE17.7 kmh SSE 17.0 mph27.4 kmh 29.83 in1010.2 mb 0.00 in0.0 mm 0.00 in0.0 mm 0.01 in0.3 mm
07:00 AM 48.6°F9.2°C 48.0°F8.9°C 98% 12.0 mph SSE19.3 kmh SSE 18.0 mph29.0 kmh 29.83 in1010.2 mb 0.00 in0.0 mm 0.00 in0.0 mm 0.01 in0.3 mm
07:03 AM 48.6°F9.2°C 48.0°F8.9°C 98% 12.0 mph SSE19.3 kmh SSE 20.0 mph32.2 kmh 29.83 in1010.2 mb 0.00 in0.0 mm 0.00 in0.0 mm 0.01 in0.3 mm
07:06 AM 48.7°F9.3°C 48.2°F9.0°C 98% 13.0 mph SSE20.9 kmh SSE 20.0 mph32.2 kmh 29.83 in1010.2 mb 0.00 in0.0 mm 0.00 in0.0 mm 0.01 in0.3 mm
07:09 AM 48.7°F9.3°C 47.8°F8.8°C 97% 14.0 mph SSE22.5 kmh SSE 20.0 mph32.2 kmh 29.83 in1010.2 mb 0.00 in0.0 mm 0.00 in0.0 mm 0.01 in0.3 mm
07:12 AM 48.7°F9.3°C 48.2°F9.0°C 98% 14.0 mph SSE22.5 kmh SSE 20.0 mph32.2 kmh 29.83 in1010.2 mb 0.00 in0.0 mm 0.00 in0.0 mm 0.01 in0.3 mm
07:15 AM 48.7°F9.3°C 48.2°F9.0°C 98% 15.0 mph SSE24.1 kmh SSE 20.0 mph32.2 kmh 29.83 in1010.2 mb 0.00 in0.0 mm 0.00 in0.0 mm 0.01 in0.3 mm
07:18 AM 48.6°F9.2°C 48.0°F8.9°C 98% 14.0 mph SSE22.5 kmh SSE 22.0 mph35.4 kmh 29.83 in1010.2 mb 0.00 in0.0 mm 0.00 in0.0 mm 0.01 in0.3 mm
07:21 AM 48.6°F9.2°C 48.0°F8.9°C 98% 14.0 mph SSE22.5 kmh SSE 22.0 mph35.4 kmh 29.83 in1010.2 mb 0.00 in0.0 mm 0.00 in0.0 mm 0.01 in0.3 mm
07:24 AM 48.6°F9.2°C 48.0°F8.9°C 98% 14.0 mph SSE22.5 kmh SSE 22.0 mph35.4 kmh 29.83 in1010.2 mb 0.00 in0.0 mm 0.00 in0.0 mm 0.01 in0.3 mm
07:27 AM 48.6°F9.2°C 48.0°F8.9°C 98% 15.0 mph SSE24.1 kmh SSE 26.0 mph41.8 kmh 29.83 in1010.2 mb 0.00 in0.0 mm 0.00 in0.0 mm 0.01 in0.3 mm
07:30 AM 48.6°F9.2°C 48.0°F8.9°C 98% 15.0 mph SSE24.1 kmh SSE 26.0 mph41.8 kmh 29.83 in1010.2 mb 0.00 in0.0 mm 0.00 in0.0 mm 0.01 in0.3 mm
07:33 AM 48.6°F9.2°C 48.0°F8.9°C 98% 15.0 mph SSE24.1 kmh SSE 26.0 mph41.8 kmh 29.84 in1010.5 mb 0.00 in0.0 mm 0.00 in0.0 mm 0.01 in0.3 mm
07:36 AM 48.6°F9.2°C 48.0°F8.9°C 98% 15.0 mph SSE24.1 kmh SSE 23.0 mph37.0 kmh 29.84 in1010.5 mb 0.00 in0.0 mm 0.00 in0.0 mm 0.01 in0.3 mm
07:39 AM 48.7°F9.3°C 48.2°F9.0°C 98% 14.0 mph SSE22.5 kmh SSE 22.0 mph35.4 kmh 29.84 in1010.5 mb 0.00 in0.0 mm 0.00 in0.0 mm 0.01 in0.3 mm
07:42 AM 48.7°F9.3°C 48.2°F9.0°C 98% 14.0 mph SSE22.5 kmh SSE 22.0 mph35.4 kmh 29.84 in1010.5 mb 0.00 in0.0 mm 0.00 in0.0 mm 0.01 in0.3 mm
07:45 AM 48.7°F9.3°C 48.2°F9.0°C 98% 14.0 mph SSE22.5 kmh SSE 19.0 mph30.6 kmh 29.84 in1010.5 mb 0.00 in0.0 mm 0.00 in0.0 mm 0.01 in0.3 mm
07:48 AM 48.9°F9.4°C 48.4°F9.1°C 98% 13.0 mph SSE20.9 kmh SSE 19.0 mph30.6 kmh 29.84 in1010.5 mb 0.00 in0.0 mm 0.00 in0.0 mm 0.01 in0.3 mm
07:51 AM 48.9°F9.4°C 48.4°F9.1°C 98% 13.0 mph SSE20.9 kmh SSE 19.0 mph30.6 kmh 29.84 in1010.5 mb 0.00 in0.0 mm 0.00 in0.0 mm 0.01 in0.3 mm
07:54 AM 48.9°F9.4°C 48.4°F9.1°C 98% 13.0 mph SSE20.9 kmh SSE 19.0 mph30.6 kmh 29.84 in1010.5 mb 0.00 in0.0 mm 0.00 in0.0 mm 0.01 in0.3 mm
07:57 AM 48.9°F9.4°C 48.4°F9.1°C 98% 13.0 mph SSE20.9 kmh SSE 19.0 mph30.6 kmh 29.84 in1010.5 mb 0.00 in0.0 mm 0.00 in0.0 mm 0.01 in0.3 mm
08:00 AM 48.9°F9.4°C 48.4°F9.1°C 98% 13.0 mph SSE20.9 kmh SSE 19.0 mph30.6 kmh 29.84 in1010.5 mb 0.00 in0.0 mm 0.00 in0.0 mm 0.01 in0.3 mm
08:03 AM 48.9°F9.4°C 48.4°F9.1°C 98% 13.0 mph SSE20.9 kmh SSE 19.0 mph30.6 kmh 29.84 in1010.5 mb 0.00 in0.0 mm 0.00 in0.0 mm 0.01 in0.3 mm
08:06 AM 48.9°F9.4°C 48.4°F9.1°C 98% 13.0 mph SSE20.9 kmh SSE 18.0 mph29.0 kmh 29.84 in1010.5 mb 0.00 in0.0 mm 0.00 in0.0 mm 0.01 in0.3 mm
08:09 AM 48.9°F9.4°C 48.4°F9.1°C 98% 13.0 mph SSE20.9 kmh SSE 20.0 mph32.2 kmh 29.84 in1010.5 mb 0.00 in0.0 mm 0.00 in0.0 mm 0.01 in0.3 mm
08:12 AM 48.9°F9.4°C 48.4°F9.1°C 98% 13.0 mph SSE20.9 kmh SSE 20.0 mph32.2 kmh 29.84 in1010.5 mb 0.00 in0.0 mm 0.00 in0.0 mm 0.01 in0.3 mm
08:15 AM 48.9°F9.4°C 48.4°F9.1°C 98% 13.0 mph SSE20.9 kmh SSE 20.0 mph32.2 kmh 29.84 in1010.5 mb 0.00 in0.0 mm 0.00 in0.0 mm 0.01 in0.3 mm
08:18 AM 48.9°F9.4°C 48.4°F9.1°C 98% 12.0 mph SSE19.3 kmh SSE 18.0 mph29.0 kmh 29.84 in1010.5 mb 0.00 in0.0 mm 0.00 in0.0 mm 0.01 in0.3 mm
08:21 AM 48.9°F9.4°C 48.4°F9.1°C 98% 12.0 mph SSE19.3 kmh SSE 18.0 mph29.0 kmh 29.84 in1010.5 mb 0.00 in0.0 mm 0.00 in0.0 mm 0.01 in0.3 mm
08:24 AM 48.9°F9.4°C 48.4°F9.1°C 98% 12.0 mph SSE19.3 kmh SSE 17.0 mph27.4 kmh 29.84 in1010.5 mb 0.00 in0.0 mm 0.00 in0.0 mm 0.01 in0.3 mm
08:27 AM 48.9°F9.4°C 48.4°F9.1°C 98% 13.0 mph SSE20.9 kmh SSE 20.0 mph32.2 kmh 29.84 in1010.5 mb 0.00 in0.0 mm 0.00 in0.0 mm 0.01 in0.3 mm
08:30 AM 48.9°F9.4°C 48.4°F9.1°C 98% 13.0 mph SSE20.9 kmh SSE 20.0 mph32.2 kmh 29.84 in1010.5 mb 0.00 in0.0 mm 0.00 in0.0 mm 0.01 in0.3 mm
08:33 AM 48.9°F9.4°C 48.2°F9.0°C 97% 14.0 mph SSE22.5 kmh SSE 22.0 mph35.4 kmh 29.84 in1010.5 mb 0.00 in0.0 mm 0.00 in0.0 mm 0.01 in0.3 mm
08:36 AM 48.9°F9.4°C 48.0°F8.9°C 97% 14.0 mph SSE22.5 kmh SSE 22.0 mph35.4 kmh 29.84 in1010.5 mb 0.00 in0.0 mm 0.00 in0.0 mm 0.01 in0.3 mm
08:39 AM 48.9°F9.4°C 48.0°F8.9°C 97% 15.0 mph SSE24.1 kmh SSE 22.0 mph35.4 kmh 29.84 in1010.5 mb 0.00 in0.0 mm 0.00 in0.0 mm 0.01 in0.3 mm
08:42 AM 48.9°F9.4°C 48.0°F8.9°C 97% 15.0 mph SSE24.1 kmh SSE 22.0 mph35.4 kmh 29.84 in1010.5 mb 0.00 in0.0 mm 0.00 in0.0 mm 0.01 in0.3 mm
08:45 AM 48.9°F9.4°C 48.2°F9.0°C 97% 14.0 mph SSE22.5 kmh SSE 22.0 mph35.4 kmh 29.84 in1010.5 mb 0.00 in0.0 mm 0.00 in0.0 mm 0.01 in0.3 mm
08:48 AM 48.9°F9.4°C 48.0°F8.9°C 97% 15.0 mph SSE24.1 kmh SSE 24.0 mph38.6 kmh 29.84 in1010.5 mb 0.00 in0.0 mm 0.00 in0.0 mm 0.01 in0.3 mm
08:51 AM 48.9°F9.4°C 48.2°F9.0°C 97% 15.0 mph SSE24.1 kmh SSE 24.0 mph38.6 kmh 29.84 in1010.5 mb 0.00 in0.0 mm 0.00 in0.0 mm 0.01 in0.3 mm
08:54 AM 48.9°F9.4°C 48.4°F9.1°C 98% 16.0 mph SSE25.7 kmh SSE 24.0 mph38.6 kmh 29.83 in1010.2 mb 0.00 in0.0 mm 0.00 in0.0 mm 0.01 in0.3 mm
08:57 AM 48.9°F9.4°C 48.4°F9.1°C 98% 17.0 mph SSE27.4 kmh SSE 24.0 mph38.6 kmh 29.83 in1010.2 mb 0.00 in0.0 mm 0.00 in0.0 mm 0.01 in0.3 mm
09:00 AM 49.1°F9.5°C 48.6°F9.2°C 98% 17.0 mph SSE27.4 kmh SSE 26.0 mph41.8 kmh 29.83 in1010.2 mb 0.00 in0.0 mm 0.00 in0.0 mm 0.01 in0.3 mm
09:03 AM 49.3°F9.6°C 48.7°F9.3°C 98% 18.0 mph SSE29.0 kmh SSE 27.0 mph43.5 kmh 29.83 in1010.2 mb 0.00 in0.0 mm 0.00 in0.0 mm 0.01 in0.3 mm
09:06 AM 49.3°F9.6°C 48.7°F9.3°C 98% 18.0 mph SSE29.0 kmh SSE 27.0 mph43.5 kmh 29.83 in1010.2 mb 0.00 in0.0 mm 0.00 in0.0 mm 0.01 in0.3 mm
09:09 AM 49.3°F9.6°C 48.6°F9.2°C 97% 18.0 mph SSE29.0 kmh SSE 27.0 mph43.5 kmh 29.83 in1010.2 mb 0.00 in0.0 mm 0.00 in0.0 mm 0.01 in0.3 mm
09:12 AM 49.5°F9.7°C 48.6°F9.2°C 97% 17.0 mph SSE27.4 kmh SSE 26.0 mph41.8 kmh 29.83 in1010.2 mb 0.00 in0.0 mm 0.00 in0.0 mm 0.01 in0.3 mm
09:15 AM 49.5°F9.7°C 48.6°F9.2°C 97% 18.0 mph SSE29.0 kmh SSE 25.0 mph40.2 kmh 29.83 in1010.2 mb 0.00 in0.0 mm 0.00 in0.0 mm 0.01 in0.3 mm
09:18 AM 49.5°F9.7°C 48.7°F9.3°C 97% 18.0 mph SSE29.0 kmh SSE 25.0 mph40.2 kmh 29.83 in1010.2 mb 0.00 in0.0 mm 0.00 in0.0 mm 0.01 in0.3 mm
09:21 AM 49.6°F9.8°C 48.7°F9.3°C 97% 18.0 mph SSE29.0 kmh SSE 25.0 mph40.2 kmh 29.83 in1010.2 mb 0.00 in0.0 mm 0.00 in0.0 mm 0.01 in0.3 mm
09:24 AM 49.6°F9.8°C 49.1°F9.5°C 98% 18.0 mph SSE29.0 kmh SSE 28.0 mph45.1 kmh 29.83 in1010.2 mb 0.00 in0.0 mm 0.00 in0.0 mm 0.01 in0.3 mm
09:27 AM 49.6°F9.8°C 49.1°F9.5°C 98% 18.0 mph SSE29.0 kmh SSE 28.0 mph45.1 kmh 29.83 in1010.2 mb 0.00 in0.0 mm 0.00 in0.0 mm 0.01 in0.3 mm
09:30 AM 49.8°F9.9°C 48.9°F9.4°C 97% 18.0 mph SSE29.0 kmh SSE 28.0 mph45.1 kmh 29.83 in1010.2 mb 0.00 in0.0 mm 0.00 in0.0 mm 0.01 in0.3 mm
09:33 AM 49.8°F9.9°C 48.9°F9.4°C 97% 17.0 mph SSE27.4 kmh SSE 27.0 mph43.5 kmh 29.83 in1010.2 mb 0.00 in0.0 mm 0.00 in0.0 mm 0.01 in0.3 mm
09:36 AM 49.8°F9.9°C 48.9°F9.4°C 97% 17.0 mph SSE27.4 kmh SSE 24.0 mph38.6 kmh 29.84 in1010.5 mb 0.00 in0.0 mm 0.00 in0.0 mm 0.01 in0.3 mm
09:39 AM 49.8°F9.9°C 48.9°F9.4°C 97% 17.0 mph SSE27.4 kmh SSE 25.0 mph40.2 kmh 29.84 in1010.5 mb 0.00 in0.0 mm 0.00 in0.0 mm 0.01 in0.3 mm
09:42 AM 49.8°F9.9°C 48.9°F9.4°C 97% 18.0 mph SSE29.0 kmh SSE 26.0 mph41.8 kmh 29.84 in1010.5 mb 0.00 in0.0 mm 0.00 in0.0 mm 0.01 in0.3 mm
09:45 AM 49.8°F9.9°C 48.9°F9.4°C 97% 19.0 mph SSE30.6 kmh SSE 27.0 mph43.5 kmh 29.84 in1010.5 mb 0.00 in0.0 mm 0.00 in0.0 mm 0.01 in0.3 mm
09:48 AM 49.8°F9.9°C 48.9°F9.4°C 97% 19.0 mph SSE30.6 kmh SSE 27.0 mph43.5 kmh 29.83 in1010.2 mb 0.00 in0.0 mm 0.00 in0.0 mm 0.01 in0.3 mm
09:51 AM 49.8°F9.9°C 48.9°F9.4°C 97% 18.0 mph SSE29.0 kmh SSE 27.0 mph43.5 kmh 29.83 in1010.2 mb 0.00 in0.0 mm 0.00 in0.0 mm 0.01 in0.3 mm
09:54 AM 49.8°F9.9°C 49.1°F9.5°C 97% 18.0 mph SSE29.0 kmh SSE 26.0 mph41.8 kmh 29.83 in1010.2 mb 0.00 in0.0 mm 0.00 in0.0 mm 0.01 in0.3 mm
09:57 AM 49.8°F9.9°C 49.1°F9.5°C 97% 18.0 mph SSE29.0 kmh SSE 27.0 mph43.5 kmh 29.83 in1010.2 mb 0.00 in0.0 mm 0.00 in0.0 mm 0.01 in0.3 mm
10:00 AM 49.8°F9.9°C 49.1°F9.5°C 97% 18.0 mph SSE29.0 kmh SSE 30.0 mph48.3 kmh 29.84 in1010.5 mb 0.00 in0.0 mm 0.00 in0.0 mm 0.01 in0.3 mm
10:03 AM 49.8°F9.9°C 49.1°F9.5°C 97% 18.0 mph SSE29.0 kmh SSE 30.0 mph48.3 kmh 29.83 in1010.2 mb 0.00 in0.0 mm 0.00 in0.0 mm 0.01 in0.3 mm
10:06 AM 50.0°F10.0°C 49.1°F9.5°C 97% 17.0 mph SSE27.4 kmh SSE 30.0 mph48.3 kmh 29.83 in1010.2 mb 0.00 in0.0 mm 0.00 in0.0 mm 0.01 in0.3 mm
10:09 AM 50.2°F10.1°C 49.3°F9.6°C 97% 17.0 mph SSE27.4 kmh SSE 25.0 mph40.2 kmh 29.83 in1010.2 mb 0.00 in0.0 mm 0.00 in0.0 mm 0.01 in0.3 mm
10:12 AM 50.2°F10.1°C 49.3°F9.6°C 97% 18.0 mph SSE29.0 kmh SSE 28.0 mph45.1 kmh 29.83 in1010.2 mb 0.00 in0.0 mm 0.00 in0.0 mm 0.01 in0.3 mm
10:15 AM 50.4°F10.2°C 49.5°F9.7°C 97% 19.0 mph SSE30.6 kmh SSE 28.0 mph45.1 kmh 29.83 in1010.2 mb 0.00 in0.0 mm 0.00 in0.0 mm 0.01 in0.3 mm
10:18 AM 50.4°F10.2°C 49.5°F9.7°C 97% 20.0 mph SSE32.2 kmh SSE 28.0 mph45.1 kmh 29.83 in1010.2 mb 0.00 in0.0 mm 0.00 in0.0 mm 0.01 in0.3 mm
10:21 AM 50.4°F10.2°C 49.5°F9.7°C 97% 20.0 mph SSE32.2 kmh SSE 30.0 mph48.3 kmh 29.83 in1010.2 mb 0.00 in0.0 mm 0.00 in0.0 mm 0.01 in0.3 mm
10:24 AM 50.4°F10.2°C 49.6°F9.8°C 97% 20.0 mph SSE32.2 kmh SSE 30.0 mph48.3 kmh 29.83 in1010.2 mb 0.00 in0.0 mm 0.00 in0.0 mm 0.01 in0.3 mm
10:27 AM 50.4°F10.2°C 49.6°F9.8°C 97% 21.0 mph SSE33.8 kmh SSE 30.0 mph48.3 kmh 29.83 in1010.2 mb 0.00 in0.0 mm 0.00 in0.0 mm 0.01 in0.3 mm
10:30 AM 50.4°F10.2°C 49.6°F9.8°C 97% 20.0 mph SSE32.2 kmh SSE 30.0 mph48.3 kmh 29.83 in1010.2 mb 0.00 in0.0 mm 0.00 in0.0 mm 0.01 in0.3 mm
10:33 AM 50.4°F10.2°C 49.6°F9.8°C 97% 19.0 mph SSE30.6 kmh SSE 28.0 mph45.1 kmh 29.83 in1010.2 mb 0.00 in0.0 mm 0.00 in0.0 mm 0.01 in0.3 mm
10:36 AM 50.7°F10.4°C 49.8°F9.9°C 97% 18.0 mph SSE29.0 kmh SSE 28.0 mph45.1 kmh 29.83 in1010.2 mb 0.00 in0.0 mm 0.00 in0.0 mm 0.01 in0.3 mm
10:39 AM 51.1°F10.6°C 50.4°F10.2°C 97% 18.0 mph SSE29.0 kmh SSE 28.0 mph45.1 kmh 29.83 in1010.2 mb 0.00 in0.0 mm 0.00 in0.0 mm 0.01 in0.3 mm
10:42 AM 51.1°F10.6°C 50.4°F10.2°C 97% 19.0 mph SSE30.6 kmh SSE 30.0 mph48.3 kmh 29.83 in1010.2 mb 0.00 in0.0 mm 0.00 in0.0 mm 0.01 in0.3 mm
10:45 AM 51.3°F10.7°C 50.4°F10.2°C 97% 19.0 mph SSE30.6 kmh SSE 30.0 mph48.3 kmh 29.83 in1010.2 mb 0.00 in0.0 mm 0.00 in0.0 mm 0.01 in0.3 mm
10:48 AM 51.1°F10.6°C 49.8°F9.9°C 96% 20.0 mph SSE32.2 kmh SSE 30.0 mph48.3 kmh 29.83 in1010.2 mb 0.00 in0.0 mm 0.00 in0.0 mm 0.01 in0.3 mm
10:51 AM 50.9°F10.5°C 49.8°F9.9°C 96% 20.0 mph SSE32.2 kmh SSE 29.0 mph46.7 kmh 29.83 in1010.2 mb 0.00 in0.0 mm 0.00 in0.0 mm 0.01 in0.3 mm
10:54 AM 50.9°F10.5°C 49.8°F9.9°C 96% 20.0 mph SSE32.2 kmh SSE 28.0 mph45.1 kmh 29.83 in1010.2 mb 0.00 in0.0 mm 0.00 in0.0 mm 0.01 in0.3 mm
10:57 AM 50.9°F10.5°C 49.8°F9.9°C 96% 19.0 mph SSE30.6 kmh SSE 28.0 mph45.1 kmh 29.83 in1010.2 mb 0.00 in0.0 mm 0.00 in0.0 mm 0.01 in0.3 mm
11:00 AM 50.9°F10.5°C 49.8°F9.9°C 96% 19.0 mph SSE30.6 kmh SSE 28.0 mph45.1 kmh 29.83 in1010.2 mb 0.00 in0.0 mm 0.00 in0.0 mm 0.01 in0.3 mm
11:03 AM 51.1°F10.6°C 49.8°F9.9°C 96% 18.0 mph SSE29.0 kmh SSE 28.0 mph45.1 kmh 29.83 in1010.2 mb 0.00 in0.0 mm 0.00 in0.0 mm 0.01 in0.3 mm
11:06 AM 51.1°F10.6°C 50.0°F10.0°C 96% 18.0 mph SSE29.0 kmh SSE 26.0 mph41.8 kmh 29.83 in1010.2 mb 0.00 in0.0 mm 0.00 in0.0 mm 0.01 in0.3 mm
11:09 AM 51.1°F10.6°C 50.0°F10.0°C 96% 19.0 mph SSE30.6 kmh SSE 29.0 mph46.7 kmh 29.83 in1010.2 mb 0.00 in0.0 mm 0.00 in0.0 mm 0.01 in0.3 mm
11:12 AM 51.1°F10.6°C 50.0°F10.0°C 96% 20.0 mph SSE32.2 kmh SSE 30.0 mph48.3 kmh 29.82 in1009.8 mb 0.00 in0.0 mm 0.00 in0.0 mm 0.01 in0.3 mm
11:15 AM 51.1°F10.6°C 50.0°F10.0°C 96% 21.0 mph SSE33.8 kmh SSE 31.0 mph49.9 kmh 29.82 in1009.8 mb 0.00 in0.0 mm 0.00 in0.0 mm 0.01 in0.3 mm
11:18 AM 51.3°F10.7°C 50.2°F10.1°C 96% 20.0 mph SSE32.2 kmh SSE 31.0 mph49.9 kmh 29.82 in1009.8 mb 0.00 in0.0 mm 0.00 in0.0 mm 0.01 in0.3 mm
11:21 AM 51.6°F10.9°C 50.5°F10.3°C 96% 20.0 mph SSE32.2 kmh SSE 31.0 mph49.9 kmh 29.82 in1009.8 mb 0.00 in0.0 mm 0.00 in0.0 mm 0.01 in0.3 mm
11:24 AM 51.6°F10.9°C 50.5°F10.3°C 96% 20.0 mph SSE32.2 kmh SSE 31.0 mph49.9 kmh 29.82 in1009.8 mb 0.00 in0.0 mm 0.00 in0.0 mm 0.01 in0.3 mm
11:27 AM 51.6°F10.9°C 50.5°F10.3°C 96% 21.0 mph SSE33.8 kmh SSE 31.0 mph49.9 kmh 29.82 in1009.8 mb 0.00 in0.0 mm 0.00 in0.0 mm 0.01 in0.3 mm
11:30 AM 51.8°F11.0°C 50.4°F10.2°C 95% 20.0 mph SSE32.2 kmh SSE 31.0 mph49.9 kmh 29.82 in1009.8 mb 0.00 in0.0 mm 0.00 in0.0 mm 0.01 in0.3 mm
11:33 AM 52.2°F11.2°C 51.1°F10.6°C 96% 21.0 mph SSE33.8 kmh SSE 33.0 mph53.1 kmh 29.82 in1009.8 mb 0.00 in0.0 mm 0.00 in0.0 mm 0.01 in0.3 mm
11:36 AM 52.5°F11.4°C 51.4°F10.8°C 96% 20.0 mph SSE32.2 kmh SSE 33.0 mph53.1 kmh 29.82 in1009.8 mb 0.00 in0.0 mm 0.00 in0.0 mm 0.01 in0.3 mm
11:39 AM 52.7°F11.5°C 51.3°F10.7°C 95% 20.0 mph SSE32.2 kmh SSE 33.0 mph53.1 kmh 29.82 in1009.8 mb 0.00 in0.0 mm 0.00 in0.0 mm 0.01 in0.3 mm
11:42 AM 52.5°F11.4°C 51.1°F10.6°C 95% 21.0 mph SSE33.8 kmh SSE 33.0 mph53.1 kmh 29.82 in1009.8 mb 0.00 in0.0 mm 0.00 in0.0 mm 0.01 in0.3 mm
11:45 AM 52.2°F11.2°C 50.5°F10.3°C 94% 22.0 mph SSE35.4 kmh SSE 33.0 mph53.1 kmh 29.82 in1009.8 mb 0.00 in0.0 mm 0.00 in0.0 mm 0.01 in0.3 mm
11:48 AM 52.0°F11.1°C 50.2°F10.1°C 94% 21.0 mph SSE33.8 kmh SSE 30.0 mph48.3 kmh 29.82 in1009.8 mb 0.00 in0.0 mm 0.00 in0.0 mm 0.01 in0.3 mm
11:51 AM 52.0°F11.1°C 50.5°F10.3°C 95% 21.0 mph SSE33.8 kmh SSE 30.0 mph48.3 kmh 29.82 in1009.8 mb 0.00 in0.0 mm 0.00 in0.0 mm 0.01 in0.3 mm
11:54 AM 52.0°F11.1°C 50.5°F10.3°C 95% 21.0 mph SSE33.8 kmh SSE 31.0 mph49.9 kmh 29.82 in1009.8 mb 0.00 in0.0 mm 0.00 in0.0 mm 0.01 in0.3 mm
11:57 AM 51.8°F11.0°C 50.2°F10.1°C 94% 21.0 mph SSE33.8 kmh SSE 34.0 mph54.7 kmh 29.82 in1009.8 mb 0.00 in0.0 mm 0.00 in0.0 mm 0.01 in0.3 mm
12:00 PM 51.8°F11.0°C 50.4°F10.2°C 95% 21.0 mph SSE33.8 kmh SSE 34.0 mph54.7 kmh 29.82 in1009.8 mb 0.00 in0.0 mm 0.00 in0.0 mm 0.01 in0.3 mm
12:03 PM 52.0°F11.1°C 50.2°F10.1°C 94% 22.0 mph SSE35.4 kmh SSE 34.0 mph54.7 kmh 29.82 in1009.8 mb 0.00 in0.0 mm 0.00 in0.0 mm 0.01 in0.3 mm
12:06 PM 52.2°F11.2°C 50.7°F10.4°C 95% 23.0 mph SSE37.0 kmh SSE 33.0 mph53.1 kmh 29.82 in1009.8 mb 0.00 in0.0 mm 0.00 in0.0 mm 0.01 in0.3 mm
12:09 PM 52.3°F11.3°C 50.9°F10.5°C 95% 23.0 mph SSE37.0 kmh SSE 33.0 mph53.1 kmh 29.82 in1009.8 mb 0.00 in0.0 mm 0.00 in0.0 mm 0.01 in0.3 mm
12:12 PM 52.3°F11.3°C 50.7°F10.4°C 94% 23.0 mph SSE37.0 kmh SSE 33.0 mph53.1 kmh 29.81 in1009.5 mb 0.00 in0.0 mm 0.00 in0.0 mm 0.01 in0.3 mm
12:15 PM 52.3°F11.3°C 50.5°F10.3°C 94% 23.0 mph SSE37.0 kmh SSE 33.0 mph53.1 kmh 29.81 in1009.5 mb 0.00 in0.0 mm 0.00 in0.0 mm 0.01 in0.3 mm
12:18 PM 52.2°F11.2°C 50.5°F10.3°C 94% 23.0 mph SSE37.0 kmh SSE 34.0 mph54.7 kmh 29.81 in1009.5 mb 0.00 in0.0 mm 0.00 in0.0 mm 0.01 in0.3 mm
12:21 PM 52.2°F11.2°C 50.4°F10.2°C 94% 24.0 mph SSE38.6 kmh SSE 37.0 mph59.5 kmh 29.81 in1009.5 mb 0.00 in0.0 mm 0.00 in0.0 mm 0.01 in0.3 mm
12:24 PM 52.2°F11.2°C 50.5°F10.3°C 94% 24.0 mph SSE38.6 kmh SSE 37.0 mph59.5 kmh 29.81 in1009.5 mb 0.00 in0.0 mm 0.00 in0.0 mm 0.01 in0.3 mm
12:27 PM 52.3°F11.3°C 50.5°F10.3°C 94% 23.0 mph SSE37.0 kmh SSE 37.0 mph59.5 kmh 29.81 in1009.5 mb 0.00 in0.0 mm 0.00 in0.0 mm 0.01 in0.3 mm
12:30 PM 52.5°F11.4°C 50.9°F10.5°C 94% 23.0 mph SSE37.0 kmh SSE 37.0 mph59.5 kmh 29.81 in1009.5 mb 0.00 in0.0 mm 0.00 in0.0 mm 0.01 in0.3 mm
12:33 PM 52.5°F11.4°C 50.9°F10.5°C 94% 22.0 mph SSE35.4 kmh SSE 36.0 mph57.9 kmh 29.81 in1009.5 mb 0.00 in0.0 mm 0.00 in0.0 mm 0.01 in0.3 mm
12:36 PM 52.7°F11.5°C 51.1°F10.6°C 94% 23.0 mph SSE37.0 kmh SSE 33.0 mph53.1 kmh 29.81 in1009.5 mb 0.00 in0.0 mm 0.00 in0.0 mm 0.01 in0.3 mm
12:39 PM 52.9°F11.6°C 50.9°F10.5°C 93% 24.0 mph SSE38.6 kmh SSE 33.0 mph53.1 kmh 29.81 in1009.5 mb 0.00 in0.0 mm 0.00 in0.0 mm 0.01 in0.3 mm
12:42 PM 52.9°F11.6°C 50.9°F10.5°C 93% 25.0 mph SSE40.2 kmh SSE 35.0 mph56.3 kmh 29.81 in1009.5 mb 0.00 in0.0 mm 0.00 in0.0 mm 0.01 in0.3 mm
12:45 PM 52.9°F11.6°C 50.9°F10.5°C 93% 25.0 mph SSE40.2 kmh SSE 36.0 mph57.9 kmh 29.80 in1009.1 mb 0.00 in0.0 mm 0.00 in0.0 mm 0.01 in0.3 mm
12:48 PM 53.1°F11.7°C 51.1°F10.6°C 93% 26.0 mph SSE41.8 kmh SSE 39.0 mph62.8 kmh 29.81 in1009.5 mb 0.00 in0.0 mm 0.00 in0.0 mm 0.01 in0.3 mm
12:51 PM 53.4°F11.9°C 51.4°F10.8°C 93% 26.0 mph SSE41.8 kmh SSE 39.0 mph62.8 kmh 29.81 in1009.5 mb 0.00 in0.0 mm 0.00 in0.0 mm 0.01 in0.3 mm
12:54 PM 53.4°F11.9°C 51.1°F10.6°C 92% 24.0 mph SSE38.6 kmh SSE 39.0 mph62.8 kmh 29.81 in1009.5 mb 0.00 in0.0 mm 0.00 in0.0 mm 0.01 in0.3 mm
12:57 PM 53.4°F11.9°C 51.3°F10.7°C 92% 25.0 mph SSE40.2 kmh SSE 39.0 mph62.8 kmh 29.80 in1009.1 mb 0.00 in0.0 mm 0.00 in0.0 mm 0.01 in0.3 mm
01:00 PM 53.6°F12.0°C 51.3°F10.7°C 92% 24.0 mph SSE38.6 kmh SSE 36.0 mph57.9 kmh 29.81 in1009.5 mb 0.00 in0.0 mm 0.00 in0.0 mm 0.01 in0.3 mm
01:03 PM 53.8°F12.1°C 51.4°F10.8°C 92% 24.0 mph SSE38.6 kmh SSE 36.0 mph57.9 kmh 29.81 in1009.5 mb 0.00 in0.0 mm 0.00 in0.0 mm 0.01 in0.3 mm
01:06 PM 53.6°F12.0°C 51.3°F10.7°C 92% 25.0 mph SSE40.2 kmh SSE 36.0 mph57.9 kmh 29.80 in1009.1 mb 0.00 in0.0 mm 0.00 in0.0 mm 0.01 in0.3 mm
01:09 PM 53.8°F12.1°C 51.6°F10.9°C 92% 25.0 mph SSE40.2 kmh SSE 36.0 mph57.9 kmh 29.80 in1009.1 mb 0.00 in0.0 mm 0.00 in0.0 mm 0.01 in0.3 mm
01:12 PM 54.0°F12.2°C 51.4°F10.8°C 91% 26.0 mph SSE41.8 kmh SSE 36.0 mph57.9 kmh 29.80 in1009.1 mb 0.00 in0.0 mm 0.00 in0.0 mm 0.01 in0.3 mm
01:15 PM 54.1°F12.3°C 51.6°F10.9°C 91% 27.0 mph SSE43.5 kmh SSE 35.0 mph56.3 kmh 29.80 in1009.1 mb 0.00 in0.0 mm 0.00 in0.0 mm 0.01 in0.3 mm
01:18 PM 54.0°F12.2°C 51.4°F10.8°C 91% 27.0 mph SSE43.5 kmh SSE 37.0 mph59.5 kmh 29.80 in1009.1 mb 0.00 in0.0 mm 0.00 in0.0 mm 0.01 in0.3 mm
01:21 PM 54.3°F12.4°C 52.0°F11.1°C 92% 26.0 mph SSE41.8 kmh SSE 40.0 mph64.4 kmh 29.80 in1009.1 mb 0.00 in0.0 mm 0.00 in0.0 mm 0.01 in0.3 mm
01:24 PM 54.5°F12.5°C 52.0°F11.1°C 91% 25.0 mph SSE40.2 kmh SSE 40.0 mph64.4 kmh 29.80 in1009.1 mb 0.00 in0.0 mm 0.00 in0.0 mm 0.01 in0.3 mm
01:27 PM 54.3°F12.4°C 51.4°F10.8°C 90% 24.0 mph SSE38.6 kmh SSE 40.0 mph64.4 kmh 29.80 in1009.1 mb 0.00 in0.0 mm 0.00 in0.0 mm 0.01 in0.3 mm
01:30 PM 54.3°F12.4°C 51.8°F11.0°C 91% 23.0 mph SSE37.0 kmh SSE 36.0 mph57.9 kmh 29.80 in1009.1 mb 0.00 in0.0 mm 0.00 in0.0 mm 0.01 in0.3 mm
01:33 PM 54.7°F12.6°C 52.2°F11.2°C 91% 24.0 mph SSE38.6 kmh SSE 36.0 mph57.9 kmh 29.80 in1009.1 mb 0.00 in0.0 mm 0.00 in0.0 mm 0.01 in0.3 mm
01:36 PM 54.7°F12.6°C 51.8°F11.0°C 90% 23.0 mph SSE37.0 kmh SSE 34.0 mph54.7 kmh 29.80 in1009.1 mb 0.00 in0.0 mm 0.00 in0.0 mm 0.01 in0.3 mm
01:39 PM 54.9°F12.7°C 52.0°F11.1°C 90% 24.0 mph SSE38.6 kmh SSE 34.0 mph54.7 kmh 29.80 in1009.1 mb 0.00 in0.0 mm 0.00 in0.0 mm 0.01 in0.3 mm
01:42 PM 54.5°F12.5°C 51.3°F10.7°C 89% 24.0 mph SSE38.6 kmh SSE 37.0 mph59.5 kmh 29.80 in1009.1 mb 0.00 in0.0 mm 0.00 in0.0 mm 0.01 in0.3 mm
01:45 PM 54.0°F12.2°C 50.7°F10.4°C 89% 25.0 mph SSE40.2 kmh SSE 37.0 mph59.5 kmh 29.80 in1009.1 mb 0.00 in0.0 mm 0.00 in0.0 mm 0.01 in0.3 mm
01:48 PM 53.4°F11.9°C 50.2°F10.1°C 89% 25.0 mph SSE40.2 kmh SSE 37.0 mph59.5 kmh 29.80 in1009.1 mb 0.00 in0.0 mm 0.00 in0.0 mm 0.01 in0.3 mm
01:51 PM 53.1°F11.7°C 50.2°F10.1°C 90% 25.0 mph SSE40.2 kmh SSE 37.0 mph59.5 kmh 29.80 in1009.1 mb 0.00 in0.0 mm 0.00 in0.0 mm 0.01 in0.3 mm
01:54 PM 52.7°F11.5°C 49.8°F9.9°C 90% 24.0 mph SSE38.6 kmh SSE 36.0 mph57.9 kmh 29.80 in1009.1 mb 0.00 in0.0 mm 0.00 in0.0 mm 0.01 in0.3 mm
01:57 PM 52.5°F11.4°C 50.0°F10.0°C 91% 24.0 mph SSE38.6 kmh SSE 36.0 mph57.9 kmh 29.80 in1009.1 mb 0.00 in0.0 mm 0.00 in0.0 mm 0.01 in0.3 mm
02:00 PM 52.3°F11.3°C 49.8°F9.9°C 91% 24.0 mph SSE38.6 kmh SSE 36.0 mph57.9 kmh 29.80 in1009.1 mb 0.00 in0.0 mm 0.00 in0.0 mm 0.01 in0.3 mm
02:03 PM 52.2°F11.2°C 50.0°F10.0°C 92% 25.0 mph SSE40.2 kmh SSE 36.0 mph57.9 kmh 29.79 in1008.8 mb 0.00 in0.0 mm 0.00 in0.0 mm 0.01 in0.3 mm
02:06 PM 52.0°F11.1°C 49.8°F9.9°C 92% 24.0 mph SSE38.6 kmh SSE 36.0 mph57.9 kmh 29.79 in1008.8 mb 0.00 in0.0 mm 0.00 in0.0 mm 0.01 in0.3 mm
02:09 PM 52.0°F11.1°C 49.8°F9.9°C 92% 24.0 mph SSE38.6 kmh SSE 33.0 mph53.1 kmh 29.79 in1008.8 mb 0.00 in0.0 mm 0.00 in0.0 mm 0.01 in0.3 mm
02:12 PM 52.0°F11.1°C 49.6°F9.8°C 92% 24.0 mph SSE38.6 kmh SSE 31.0 mph49.9 kmh 29.80 in1009.1 mb 0.00 in0.0 mm 0.00 in0.0 mm 0.01 in0.3 mm
02:15 PM 51.8°F11.0°C 49.5°F9.7°C 92% 24.0 mph SSE38.6 kmh SSE 33.0 mph53.1 kmh 29.79 in1008.8 mb 0.00 in0.0 mm 0.00 in0.0 mm 0.01 in0.3 mm
02:18 PM 51.6°F10.9°C 49.3°F9.6°C 92% 23.0 mph SSE37.0 kmh SSE 33.0 mph53.1 kmh 29.79 in1008.8 mb 0.00 in0.0 mm 0.00 in0.0 mm 0.01 in0.3 mm
02:21 PM 51.4°F10.8°C 49.3°F9.6°C 92% 24.0 mph SSE38.6 kmh SSE 34.0 mph54.7 kmh 29.79 in1008.8 mb 0.00 in0.0 mm 0.00 in0.0 mm 0.01 in0.3 mm
02:24 PM 51.4°F10.8°C 49.5°F9.7°C 93% 23.0 mph SSE37.0 kmh SSE 34.0 mph54.7 kmh 29.79 in1008.8 mb 0.00 in0.0 mm 0.00 in0.0 mm 0.01 in0.3 mm
02:27 PM 51.4°F10.8°C 49.5°F9.7°C 93% 23.0 mph SSE37.0 kmh SSE 34.0 mph54.7 kmh 29.79 in1008.8 mb 0.00 in0.0 mm 0.00 in0.0 mm 0.01 in0.3 mm
02:30 PM 51.4°F10.8°C 49.5°F9.7°C 93% 23.0 mph SSE37.0 kmh SSE 34.0 mph54.7 kmh 29.79 in1008.8 mb 0.00 in0.0 mm 0.00 in0.0 mm 0.01 in0.3 mm
02:33 PM 51.8°F11.0°C 49.8°F9.9°C 93% 23.0 mph SSE37.0 kmh SSE 32.0 mph51.5 kmh 29.79 in1008.8 mb 0.00 in0.0 mm 0.00 in0.0 mm 0.01 in0.3 mm
02:36 PM 52.2°F11.2°C 50.2°F10.1°C 93% 23.0 mph SSE37.0 kmh SSE 33.0 mph53.1 kmh 29.79 in1008.8 mb 0.00 in0.0 mm 0.00 in0.0 mm 0.01 in0.3 mm
02:39 PM 52.0°F11.1°C 50.0°F10.0°C 93% 24.0 mph SSE38.6 kmh SSE 33.0 mph53.1 kmh 29.78 in1008.5 mb 0.00 in0.0 mm 0.00 in0.0 mm 0.01 in0.3 mm
02:42 PM 51.6°F10.9°C 49.3°F9.6°C 92% 24.0 mph SSE38.6 kmh SSE 35.0 mph56.3 kmh 29.78 in1008.5 mb 0.00 in0.0 mm 0.00 in0.0 mm 0.01 in0.3 mm
02:45 PM 51.4°F10.8°C 49.1°F9.5°C 92% 25.0 mph SSE40.2 kmh SSE 38.0 mph61.2 kmh 29.78 in1008.5 mb 0.00 in0.0 mm 0.00 in0.0 mm 0.01 in0.3 mm
02:48 PM 51.3°F10.7°C 49.3°F9.6°C 93% 25.0 mph SSE40.2 kmh SSE 38.0 mph61.2 kmh 29.79 in1008.8 mb 0.00 in0.0 mm 0.00 in0.0 mm 0.01 in0.3 mm
02:51 PM 51.1°F10.6°C 49.1°F9.5°C 93% 24.0 mph SSE38.6 kmh SSE 38.0 mph61.2 kmh 29.78 in1008.5 mb 0.00 in0.0 mm 0.00 in0.0 mm 0.01 in0.3 mm
02:54 PM 50.9°F10.5°C 48.9°F9.4°C 93% 23.0 mph SSE37.0 kmh SSE 34.0 mph54.7 kmh 29.78 in1008.5 mb 0.00 in0.0 mm 0.00 in0.0 mm 0.01 in0.3 mm
02:57 PM 51.1°F10.6°C 49.1°F9.5°C 93% 23.0 mph SSE37.0 kmh SSE 31.0 mph49.9 kmh 29.78 in1008.5 mb 0.00 in0.0 mm 0.00 in0.0 mm 0.01 in0.3 mm
03:00 PM 51.1°F10.6°C 49.1°F9.5°C 93% 23.0 mph SSE37.0 kmh SSE 32.0 mph51.5 kmh 29.78 in1008.5 mb 0.00 in0.0 mm 0.00 in0.0 mm 0.01 in0.3 mm
03:03 PM 50.9°F10.5°C 48.9°F9.4°C 93% 23.0 mph SSE37.0 kmh SSE 33.0 mph53.1 kmh 29.78 in1008.5 mb 0.00 in0.0 mm 0.00 in0.0 mm 0.01 in0.3 mm
03:06 PM 50.9°F10.5°C 49.3°F9.6°C 94% 23.0 mph SSE37.0 kmh SSE 33.0 mph53.1 kmh 29.78 in1008.5 mb 0.00 in0.0 mm 0.00 in0.0 mm 0.01 in0.3 mm
03:09 PM 50.9°F10.5°C 49.3°F9.6°C 94% 23.0 mph SSE37.0 kmh SSE 33.0 mph53.1 kmh 29.78 in1008.5 mb 0.00 in0.0 mm 0.00 in0.0 mm 0.01 in0.3 mm
03:12 PM 51.1°F10.6°C 49.3°F9.6°C 94% 23.0 mph SSE37.0 kmh SSE 33.0 mph53.1 kmh 29.77 in1008.1 mb 0.00 in0.0 mm 0.00 in0.0 mm 0.01 in0.3 mm
03:15 PM 50.9°F10.5°C 49.3°F9.6°C 94% 23.0 mph SSE37.0 kmh SSE 33.0 mph53.1 kmh 29.77 in1008.1 mb 0.00 in0.0 mm 0.00 in0.0 mm 0.01 in0.3 mm
03:18 PM 51.1°F10.6°C 49.3°F9.6°C 94% 23.0 mph SSE37.0 kmh SSE 38.0 mph61.2 kmh 29.77 in1008.1 mb 0.00 in0.0 mm 0.00 in0.0 mm 0.01 in0.3 mm
03:21 PM 50.9°F10.5°C 49.3°F9.6°C 94% 23.0 mph SSE37.0 kmh SSE 38.0 mph61.2 kmh 29.77 in1008.1 mb 0.00 in0.0 mm 0.00 in0.0 mm 0.01 in0.3 mm
03:24 PM 50.9°F10.5°C 49.3°F9.6°C 94% 23.0 mph SSE37.0 kmh SSE 38.0 mph61.2 kmh 29.77 in1008.1 mb 0.00 in0.0 mm 0.00 in0.0 mm 0.01 in0.3 mm
03:27 PM 50.9°F10.5°C 49.3°F9.6°C 94% 23.0 mph SSE37.0 kmh SSE 38.0 mph61.2 kmh 29.77 in1008.1 mb 0.00 in0.0 mm 0.00 in0.0 mm 0.01 in0.3 mm
03:30 PM 50.7°F10.4°C 49.1°F9.5°C 94% 24.0 mph SSE38.6 kmh SSE 36.0 mph57.9 kmh 29.77 in1008.1 mb 0.00 in0.0 mm 0.00 in0.0 mm 0.01 in0.3 mm
03:33 PM 50.9°F10.5°C 49.3°F9.6°C 94% 24.0 mph SSE38.6 kmh SSE 37.0 mph59.5 kmh 29.77 in1008.1 mb 0.00 in0.0 mm 0.00 in0.0 mm 0.01 in0.3 mm
03:36 PM 50.7°F10.4°C 49.1°F9.5°C 94% 25.0 mph SSE40.2 kmh SSE 37.0 mph59.5 kmh 29.77 in1008.1 mb 0.00 in0.0 mm 0.00 in0.0 mm 0.01 in0.3 mm
03:39 PM 50.9°F10.5°C 49.3°F9.6°C 94% 25.0 mph SSE40.2 kmh SSE 37.0 mph59.5 kmh 29.77 in1008.1 mb 0.00 in0.0 mm 0.00 in0.0 mm 0.01 in0.3 mm
03:42 PM 50.9°F10.5°C 49.3°F9.6°C 94% 24.0 mph SSE38.6 kmh SSE 34.0 mph54.7 kmh 29.77 in1008.1 mb 0.00 in0.0 mm 0.00 in0.0 mm 0.01 in0.3 mm
03:45 PM 51.1°F10.6°C 49.3°F9.6°C 94% 22.0 mph SSE35.4 kmh SSE 33.0 mph53.1 kmh 29.77 in1008.1 mb 0.00 in0.0 mm 0.00 in0.0 mm 0.01 in0.3 mm
03:48 PM 51.1°F10.6°C 49.5°F9.7°C 94% 21.0 mph SSE33.8 kmh SSE 30.0 mph48.3 kmh 29.77 in1008.1 mb 0.00 in0.0 mm 0.00 in0.0 mm 0.01 in0.3 mm
03:51 PM 51.1°F10.6°C 49.5°F9.7°C 94% 21.0 mph SSE33.8 kmh SSE 29.0 mph46.7 kmh 29.77 in1008.1 mb 0.00 in0.0 mm 0.00 in0.0 mm 0.01 in0.3 mm
03:54 PM 51.1°F10.6°C 49.1°F9.5°C 93% 22.0 mph SSE35.4 kmh SSE 30.0 mph48.3 kmh 29.76 in1007.8 mb 0.00 in0.0 mm 0.00 in0.0 mm 0.01 in0.3 mm
03:57 PM 51.1°F10.6°C 49.1°F9.5°C 93% 23.0 mph SSE37.0 kmh SSE 35.0 mph56.3 kmh 29.76 in1007.8 mb 0.00 in0.0 mm 0.00 in0.0 mm 0.01 in0.3 mm
04:00 PM 50.9°F10.5°C 48.9°F9.4°C 93% 23.0 mph SSE37.0 kmh SSE 35.0 mph56.3 kmh 29.76 in1007.8 mb 0.00 in0.0 mm 0.00 in0.0 mm 0.01 in0.3 mm
04:03 PM 50.7°F10.4°C 48.9°F9.4°C 93% 22.0 mph SSE35.4 kmh SSE 35.0 mph56.3 kmh 29.76 in1007.8 mb 0.00 in0.0 mm 0.00 in0.0 mm 0.01 in0.3 mm
04:06 PM 50.7°F10.4°C 48.7°F9.3°C 93% 22.0 mph SSE35.4 kmh SSE 32.0 mph51.5 kmh 29.76 in1007.8 mb 0.00 in0.0 mm 0.00 in0.0 mm 0.01 in0.3 mm
04:09 PM 50.5°F10.3°C 48.7°F9.3°C 93% 22.0 mph SSE35.4 kmh SSE 32.0 mph51.5 kmh 29.76 in1007.8 mb 0.00 in0.0 mm 0.00 in0.0 mm 0.01 in0.3 mm
04:12 PM 50.7°F10.4°C 49.1°F9.5°C 94% 23.0 mph SSE37.0 kmh SSE 35.0 mph56.3 kmh 29.76 in1007.8 mb 0.00 in0.0 mm 0.00 in0.0 mm 0.01 in0.3 mm
04:15 PM 50.7°F10.4°C 49.1°F9.5°C 94% 23.0 mph SSE37.0 kmh SSE 35.0 mph56.3 kmh 29.76 in1007.8 mb 0.00 in0.0 mm 0.00 in0.0 mm 0.01 in0.3 mm
04:18 PM 50.9°F10.5°C 49.3°F9.6°C 94% 22.0 mph SE35.4 kmh SE 35.0 mph56.3 kmh 29.75 in1007.5 mb 0.00 in0.0 mm 0.00 in0.0 mm 0.01 in0.3 mm
04:21 PM 50.9°F10.5°C 49.3°F9.6°C 94% 23.0 mph SE37.0 kmh SE 33.0 mph53.1 kmh 29.75 in1007.5 mb 0.00 in0.0 mm 0.00 in0.0 mm 0.01 in0.3 mm
04:24 PM 51.1°F10.6°C 49.5°F9.7°C 94% 23.0 mph SE37.0 kmh SE 31.0 mph49.9 kmh 29.76 in1007.8 mb 0.00 in0.0 mm 0.00 in0.0 mm 0.01 in0.3 mm
04:27 PM 51.3°F10.7°C 49.5°F9.7°C 94% 23.0 mph SE37.0 kmh SE 32.0 mph51.5 kmh 29.75 in1007.5 mb 0.00 in0.0 mm 0.00 in0.0 mm 0.01 in0.3 mm
04:30 PM 51.1°F10.6°C 49.1°F9.5°C 93% 23.0 mph SE37.0 kmh SE 33.0 mph53.1 kmh 29.76 in1007.8 mb 0.00 in0.0 mm 0.00 in0.0 mm 0.01 in0.3 mm
04:33 PM 51.1°F10.6°C 49.1°F9.5°C 93% 23.0 mph SSE37.0 kmh SSE 33.0 mph53.1 kmh 29.75 in1007.5 mb 0.00 in0.0 mm 0.00 in0.0 mm 0.01 in0.3 mm
04:36 PM 50.9°F10.5°C 48.9°F9.4°C 93% 22.0 mph SSE35.4 kmh SSE 33.0 mph53.1 kmh 29.75 in1007.5 mb 0.00 in0.0 mm 0.00 in0.0 mm 0.01 in0.3 mm
04:39 PM 50.9°F10.5°C 48.9°F9.4°C 93% 21.0 mph SSE33.8 kmh SSE 32.0 mph51.5 kmh 29.75 in1007.5 mb 0.00 in0.0 mm 0.00 in0.0 mm 0.01 in0.3 mm
04:42 PM 50.7°F10.4°C 48.9°F9.4°C 93% 22.0 mph SSE35.4 kmh SSE 32.0 mph51.5 kmh 29.75 in1007.5 mb 0.00 in0.0 mm 0.00 in0.0 mm 0.01 in0.3 mm
04:45 PM 50.7°F10.4°C 48.9°F9.4°C 93% 22.0 mph SSE35.4 kmh SSE 32.0 mph51.5 kmh 29.75 in1007.5 mb 0.00 in0.0 mm 0.00 in0.0 mm 0.01 in0.3 mm
04:48 PM 50.7°F10.4°C 48.7°F9.3°C 93% 22.0 mph SSE35.4 kmh SSE 32.0 mph51.5 kmh 29.75 in1007.5 mb 0.00 in0.0 mm 0.00 in0.0 mm 0.01 in0.3 mm
04:51 PM 50.5°F10.3°C 48.6°F9.2°C 93% 22.0 mph SSE35.4 kmh SSE 34.0 mph54.7 kmh 29.75 in1007.5 mb 0.00 in0.0 mm 0.00 in0.0 mm 0.01 in0.3 mm
04:54 PM 50.5°F10.3°C 48.6°F9.2°C 93% 22.0 mph SSE35.4 kmh SSE 34.0 mph54.7 kmh 29.75 in1007.5 mb 0.00 in0.0 mm 0.00 in0.0 mm 0.01 in0.3 mm
04:57 PM 50.4°F10.2°C 48.7°F9.3°C 94% 22.0 mph SSE35.4 kmh SSE 34.0 mph54.7 kmh 29.75 in1007.5 mb 0.00 in0.0 mm 0.00 in0.0 mm 0.01 in0.3 mm
05:00 PM 50.4°F10.2°C 48.7°F9.3°C 94% 22.0 mph SSE35.4 kmh SSE 34.0 mph54.7 kmh 29.75 in1007.5 mb 0.00 in0.0 mm 0.00 in0.0 mm 0.01 in0.3 mm
05:03 PM 50.4°F10.2°C 48.6°F9.2°C 94% 22.0 mph SSE35.4 kmh SSE 34.0 mph54.7 kmh 29.75 in1007.5 mb 0.00 in0.0 mm 0.00 in0.0 mm 0.01 in0.3 mm
05:06 PM 50.4°F10.2°C 48.6°F9.2°C 94% 23.0 mph SSE37.0 kmh SSE 34.0 mph54.7 kmh 29.75 in1007.5 mb 0.00 in0.0 mm 0.00 in0.0 mm 0.01 in0.3 mm
05:09 PM 50.4°F10.2°C 48.6°F9.2°C 94% 24.0 mph SSE38.6 kmh SSE 34.0 mph54.7 kmh 29.75 in1007.5 mb 0.00 in0.0 mm 0.00 in0.0 mm 0.01 in0.3 mm
05:12 PM 50.4°F10.2°C 48.6°F9.2°C 94% 24.0 mph SSE38.6 kmh SSE 32.0 mph51.5 kmh 29.75 in1007.5 mb 0.00 in0.0 mm 0.00 in0.0 mm 0.01 in0.3 mm
05:15 PM 50.2°F10.1°C 48.6°F9.2°C 94% 24.0 mph SSE38.6 kmh SSE 32.0 mph51.5 kmh 29.75 in1007.5 mb 0.00 in0.0 mm 0.00 in0.0 mm 0.01 in0.3 mm
05:18 PM 50.2°F10.1°C 48.6°F9.2°C 94% 23.0 mph SSE37.0 kmh SSE 32.0 mph51.5 kmh 29.74 in1007.1 mb 0.00 in0.0 mm 0.00 in0.0 mm 0.01 in0.3 mm
05:21 PM 50.2°F10.1°C 48.6°F9.2°C 94% 23.0 mph SSE37.0 kmh SSE 32.0 mph51.5 kmh 29.74 in1007.1 mb 0.00 in0.0 mm 0.00 in0.0 mm 0.01 in0.3 mm
05:24 PM 50.2°F10.1°C 48.4°F9.1°C 94% 22.0 mph SSE35.4 kmh SSE 31.0 mph49.9 kmh 29.74 in1007.1 mb 0.00 in0.0 mm 0.00 in0.0 mm 0.01 in0.3 mm
05:27 PM 50.2°F10.1°C 48.4°F9.1°C 94% 23.0 mph SSE37.0 kmh SSE 35.0 mph56.3 kmh 29.74 in1007.1 mb 0.00 in0.0 mm 0.00 in0.0 mm 0.01 in0.3 mm
05:30 PM 50.0°F10.0°C 48.4°F9.1°C 94% 23.0 mph SSE37.0 kmh SSE 35.0 mph56.3 kmh 29.74 in1007.1 mb 0.00 in0.0 mm 0.00 in0.0 mm 0.01 in0.3 mm
05:33 PM 50.2°F10.1°C 48.4°F9.1°C 94% 23.0 mph SE37.0 kmh SE 35.0 mph56.3 kmh 29.74 in1007.1 mb 0.00 in0.0 mm 0.00 in0.0 mm 0.01 in0.3 mm
05:36 PM 50.2°F10.1°C 48.4°F9.1°C 94% 23.0 mph SE37.0 kmh SE 34.0 mph54.7 kmh 29.73 in1006.8 mb 0.00 in0.0 mm 0.00 in0.0 mm 0.01 in0.3 mm
05:39 PM 50.2°F10.1°C 48.4°F9.1°C 94% 24.0 mph SE38.6 kmh SE 37.0 mph59.5 kmh 29.73 in1006.8 mb 0.00 in0.0 mm 0.00 in0.0 mm 0.01 in0.3 mm
05:42 PM 50.2°F10.1°C 48.4°F9.1°C 94% 25.0 mph SE40.2 kmh SE 37.0 mph59.5 kmh 29.73 in1006.8 mb 0.00 in0.0 mm 0.00 in0.0 mm 0.01 in0.3 mm
05:45 PM 50.2°F10.1°C 48.4°F9.1°C 94% 25.0 mph SE40.2 kmh SE 37.0 mph59.5 kmh 29.73 in1006.8 mb 0.00 in0.0 mm 0.00 in0.0 mm 0.01 in0.3 mm
05:48 PM 50.0°F10.0°C 48.4°F9.1°C 94% 25.0 mph SE40.2 kmh SE 37.0 mph59.5 kmh 29.73 in1006.8 mb 0.00 in0.0 mm 0.00 in0.0 mm 0.01 in0.3 mm
05:51 PM 50.0°F10.0°C 48.4°F9.1°C 94% 24.0 mph SE38.6 kmh SE 33.0 mph53.1 kmh 29.73 in1006.8 mb 0.00 in0.0 mm 0.00 in0.0 mm 0.01 in0.3 mm
05:54 PM 50.0°F10.0°C 48.4°F9.1°C 94% 24.0 mph SSE38.6 kmh SSE 33.0 mph53.1 kmh 29.73 in1006.8 mb 0.00 in0.0 mm 0.00 in0.0 mm 0.01 in0.3 mm
05:57 PM 50.0°F10.0°C 48.4°F9.1°C 94% 24.0 mph SSE38.6 kmh SSE 36.0 mph57.9 kmh 29.73 in1006.8 mb 0.00 in0.0 mm 0.00 in0.0 mm 0.01 in0.3 mm
06:00 PM 50.0°F10.0°C 48.4°F9.1°C 94% 23.0 mph SSE37.0 kmh SSE 36.0 mph57.9 kmh 29.73 in1006.8 mb 0.00 in0.0 mm 0.00 in0.0 mm 0.01 in0.3 mm
06:03 PM 50.0°F10.0°C 48.4°F9.1°C 94% 22.0 mph SE35.4 kmh SE 36.0 mph57.9 kmh 29.72 in1006.4 mb 0.00 in0.0 mm 0.00 in0.0 mm 0.01 in0.3 mm
06:06 PM 49.8°F9.9°C 48.2°F9.0°C 94% 21.0 mph SE33.8 kmh SE 32.0 mph51.5 kmh 29.73 in1006.8 mb 0.00 in0.0 mm 0.00 in0.0 mm 0.01 in0.3 mm
06:09 PM 49.8°F9.9°C 48.2°F9.0°C 94% 20.0 mph SE32.2 kmh SE 29.0 mph46.7 kmh 29.72 in1006.4 mb 0.00 in0.0 mm 0.00 in0.0 mm 0.01 in0.3 mm
06:12 PM 49.8°F9.9°C 48.6°F9.2°C 95% 20.0 mph SE32.2 kmh SE 30.0 mph48.3 kmh 29.72 in1006.4 mb 0.00 in0.0 mm 0.00 in0.0 mm 0.01 in0.3 mm
06:15 PM 49.8°F9.9°C 48.4°F9.1°C 95% 20.0 mph SE32.2 kmh SE 30.0 mph48.3 kmh 29.72 in1006.4 mb 0.00 in0.0 mm 0.00 in0.0 mm 0.01 in0.3 mm
06:18 PM 49.8°F9.9°C 48.4°F9.1°C 95% 20.0 mph SE32.2 kmh SE 32.0 mph51.5 kmh 29.72 in1006.4 mb 0.00 in0.0 mm 0.00 in0.0 mm 0.01 in0.3 mm
06:21 PM 49.8°F9.9°C 48.4°F9.1°C 95% 20.0 mph SE32.2 kmh SE 32.0 mph51.5 kmh 29.72 in1006.4 mb 0.00 in0.0 mm 0.00 in0.0 mm 0.01 in0.3 mm
06:24 PM 49.8°F9.9°C 48.4°F9.1°C 95% 20.0 mph SE32.2 kmh SE 32.0 mph51.5 kmh 29.72 in1006.4 mb 0.00 in0.0 mm 0.00 in0.0 mm 0.01 in0.3 mm
06:27 PM 49.8°F9.9°C 48.4°F9.1°C 95% 19.0 mph SE30.6 kmh SE 30.0 mph48.3 kmh 29.72 in1006.4 mb 0.00 in0.0 mm 0.00 in0.0 mm 0.01 in0.3 mm
06:30 PM 49.8°F9.9°C 48.4°F9.1°C 95% 19.0 mph SE30.6 kmh SE 30.0 mph48.3 kmh 29.72 in1006.4 mb 0.00 in0.0 mm 0.00 in0.0 mm 0.01 in0.3 mm
06:33 PM 49.8°F9.9°C 48.4°F9.1°C 95% 19.0 mph SE30.6 kmh SE 30.0 mph48.3 kmh 29.72 in1006.4 mb 0.00 in0.0 mm 0.00 in0.0 mm 0.01 in0.3 mm
06:36 PM 49.6°F9.8°C 48.4°F9.1°C 95% 19.0 mph SE30.6 kmh SE 31.0 mph49.9 kmh 29.71 in1006.1 mb 0.00 in0.0 mm 0.00 in0.0 mm 0.01 in0.3 mm
06:39 PM 49.6°F9.8°C 48.4°F9.1°C 95% 20.0 mph SE32.2 kmh SE 31.0 mph49.9 kmh 29.71 in1006.1 mb 0.00 in0.0 mm 0.00 in0.0 mm 0.01 in0.3 mm
06:42 PM 49.6°F9.8°C 48.4°F9.1°C 95% 19.0 mph SE30.6 kmh SE 31.0 mph49.9 kmh 29.71 in1006.1 mb 0.00 in0.0 mm 0.00 in0.0 mm 0.01 in0.3 mm
06:45 PM 49.6°F9.8°C 48.4°F9.1°C 95% 20.0 mph SE32.2 kmh SE 32.0 mph51.5 kmh 29.71 in1006.1 mb 0.00 in0.0 mm 0.00 in0.0 mm 0.01 in0.3 mm
06:48 PM 49.6°F9.8°C 48.4°F9.1°C 95% 21.0 mph SE33.8 kmh SE 32.0 mph51.5 kmh 29.71 in1006.1 mb 0.00 in0.0 mm 0.00 in0.0 mm 0.01 in0.3 mm
06:51 PM 49.6°F9.8°C 48.4°F9.1°C 95% 22.0 mph SE35.4 kmh SE 32.0 mph51.5 kmh 29.71 in1006.1 mb 0.00 in0.0 mm 0.00 in0.0 mm 0.01 in0.3 mm
06:54 PM 49.6°F9.8°C 48.4°F9.1°C 95% 21.0 mph SE33.8 kmh SE 32.0 mph51.5 kmh 29.71 in1006.1 mb 0.00 in0.0 mm 0.00 in0.0 mm 0.01 in0.3 mm
06:57 PM 49.6°F9.8°C 48.4°F9.1°C 95% 20.0 mph SE32.2 kmh SE 31.0 mph49.9 kmh 29.71 in1006.1 mb 0.00 in0.0 mm 0.00 in0.0 mm 0.01 in0.3 mm
07:00 PM 49.6°F9.8°C 48.4°F9.1°C 95% 21.0 mph SE33.8 kmh SE 32.0 mph51.5 kmh 29.71 in1006.1 mb 0.00 in0.0 mm 0.00 in0.0 mm 0.01 in0.3 mm
07:03 PM 49.6°F9.8°C 48.4°F9.1°C 95% 20.0 mph SE32.2 kmh SE 32.0 mph51.5 kmh 29.71 in1006.1 mb 0.00 in0.0 mm 0.00 in0.0 mm 0.01 in0.3 mm
07:06 PM 49.6°F9.8°C 48.4°F9.1°C 95% 21.0 mph SE33.8 kmh SE 32.0 mph51.5 kmh 29.71 in1006.1 mb 0.00 in0.0 mm 0.00 in0.0 mm 0.01 in0.3 mm
07:09 PM 49.6°F9.8°C 48.4°F9.1°C 95% 21.0 mph SE33.8 kmh SE 32.0 mph51.5 kmh 29.71 in1006.1 mb 0.00 in0.0 mm 0.00 in0.0 mm 0.01 in0.3 mm
07:12 PM 49.6°F9.8°C 48.4°F9.1°C 95% 20.0 mph SE32.2 kmh SE 30.0 mph48.3 kmh 29.71 in1006.1 mb 0.00 in0.0 mm 0.00 in0.0 mm 0.01 in0.3 mm
07:15 PM 49.6°F9.8°C 48.4°F9.1°C 95% 20.0 mph SE32.2 kmh SE 30.0 mph48.3 kmh 29.71 in1006.1 mb 0.00 in0.0 mm 0.00 in0.0 mm 0.01 in0.3 mm
07:18 PM 49.6°F9.8°C 48.4°F9.1°C 95% 20.0 mph SE32.2 kmh SE 34.0 mph54.7 kmh 29.70 in1005.8 mb 0.00 in0.0 mm 0.00 in0.0 mm 0.01 in0.3 mm
07:21 PM 49.6°F9.8°C 48.4°F9.1°C 95% 19.0 mph SE30.6 kmh SE 34.0 mph54.7 kmh 29.71 in1006.1 mb 0.00 in0.0 mm 0.00 in0.0 mm 0.01 in0.3 mm
07:24 PM 49.6°F9.8°C 48.4°F9.1°C 95% 20.0 mph SE32.2 kmh SE 34.0 mph54.7 kmh 29.71 in1006.1 mb 0.01 in0.3 mm 0.20 in5.1 mm 0.02 in0.5 mm
07:27 PM 49.6°F9.8°C 48.4°F9.1°C 95% 20.0 mph SE32.2 kmh SE 32.0 mph51.5 kmh 29.71 in1006.1 mb 0.01 in0.3 mm 0.00 in0.0 mm 0.02 in0.5 mm
07:30 PM 49.6°F9.8°C 48.4°F9.1°C 95% 21.0 mph SE33.8 kmh SE 32.0 mph51.5 kmh 29.71 in1006.1 mb 0.01 in0.3 mm 0.00 in0.0 mm 0.02 in0.5 mm
07:33 PM 49.6°F9.8°C 48.4°F9.1°C 95% 20.0 mph SE32.2 kmh SE 31.0 mph49.9 kmh 29.71 in1006.1 mb 0.01 in0.3 mm 0.00 in0.0 mm 0.02 in0.5 mm
07:36 PM 49.6°F9.8°C 48.4°F9.1°C 95% 21.0 mph SE33.8 kmh SE 31.0 mph49.9 kmh 29.71 in1006.1 mb 0.01 in0.3 mm 0.00 in0.0 mm 0.02 in0.5 mm
07:39 PM 49.6°F9.8°C 48.4°F9.1°C 95% 21.0 mph SE33.8 kmh SE 33.0 mph53.1 kmh 29.71 in1006.1 mb 0.01 in0.3 mm 0.00 in0.0 mm 0.02 in0.5 mm
07:42 PM 49.6°F9.8°C 48.2°F9.0°C 95% 22.0 mph SE35.4 kmh SE 35.0 mph56.3 kmh 29.70 in1005.8 mb 0.01 in0.3 mm 0.00 in0.0 mm 0.02 in0.5 mm
07:45 PM 49.6°F9.8°C 48.4°F9.1°C 95% 22.0 mph SE35.4 kmh SE 40.0 mph64.4 kmh 29.70 in1005.8 mb 0.01 in0.3 mm 0.00 in0.0 mm 0.02 in0.5 mm
07:48 PM 49.6°F9.8°C 48.4°F9.1°C 95% 22.0 mph SE35.4 kmh SE 40.0 mph64.4 kmh 29.70 in1005.8 mb 0.01 in0.3 mm 0.00 in0.0 mm 0.02 in0.5 mm
07:51 PM 49.6°F9.8°C 48.4°F9.1°C 95% 22.0 mph SE35.4 kmh SE 40.0 mph64.4 kmh 29.70 in1005.8 mb 0.01 in0.3 mm 0.00 in0.0 mm 0.02 in0.5 mm
07:54 PM 49.6°F9.8°C 48.4°F9.1°C 95% 22.0 mph SE35.4 kmh SE 33.0 mph53.1 kmh 29.70 in1005.8 mb 0.01 in0.3 mm 0.00 in0.0 mm 0.02 in0.5 mm
07:57 PM 49.8°F9.9°C 48.4°F9.1°C 95% 22.0 mph SE35.4 kmh SE 33.0 mph53.1 kmh 29.70 in1005.8 mb 0.01 in0.3 mm 0.00 in0.0 mm 0.02 in0.5 mm
08:00 PM 49.8°F9.9°C 48.4°F9.1°C 95% 22.0 mph SE35.4 kmh SE 33.0 mph53.1 kmh 29.70 in1005.8 mb 0.01 in0.3 mm 0.00 in0.0 mm 0.02 in0.5 mm
08:03 PM 49.8°F9.9°C 48.4°F9.1°C 95% 22.0 mph SE35.4 kmh SE 33.0 mph53.1 kmh 29.70 in1005.8 mb 0.01 in0.3 mm 0.00 in0.0 mm 0.02 in0.5 mm
08:06 PM 49.8°F9.9°C 48.4°F9.1°C 95% 23.0 mph SE37.0 kmh SE 35.0 mph56.3 kmh 29.70 in1005.8 mb 0.01 in0.3 mm 0.00 in0.0 mm 0.02 in0.5 mm
08:09 PM 49.8°F9.9°C 48.4°F9.1°C 95% 22.0 mph SE35.4 kmh SE 35.0 mph56.3 kmh 29.69 in1005.4 mb 0.01 in0.3 mm 0.00 in0.0 mm 0.02 in0.5 mm
08:12 PM 49.8°F9.9°C 48.4°F9.1°C 95% 23.0 mph SSE37.0 kmh SSE 37.0 mph59.5 kmh 29.70 in1005.8 mb 0.01 in0.3 mm 0.00 in0.0 mm 0.02 in0.5 mm
08:15 PM 49.8°F9.9°C 48.4°F9.1°C 95% 24.0 mph SSE38.6 kmh SSE 37.0 mph59.5 kmh 29.69 in1005.4 mb 0.01 in0.3 mm 0.00 in0.0 mm 0.02 in0.5 mm
08:18 PM 49.8°F9.9°C 48.4°F9.1°C 95% 24.0 mph SSE38.6 kmh SSE 37.0 mph59.5 kmh 29.69 in1005.4 mb 0.01 in0.3 mm 0.00 in0.0 mm 0.02 in0.5 mm
08:21 PM 49.8°F9.9°C 48.4°F9.1°C 95% 24.0 mph SSE38.6 kmh SSE 38.0 mph61.2 kmh 29.69 in1005.4 mb 0.01 in0.3 mm 0.00 in0.0 mm 0.02 in0.5 mm
08:24 PM 49.8°F9.9°C 48.6°F9.2°C 95% 24.0 mph SE38.6 kmh SE 38.0 mph61.2 kmh 29.69 in1005.4 mb 0.00 in0.0 mm 0.00 in0.0 mm 0.02 in0.5 mm
08:27 PM 49.8°F9.9°C 48.4°F9.1°C 95% 23.0 mph SE37.0 kmh SE 38.0 mph61.2 kmh 29.69 in1005.4 mb 0.00 in0.0 mm 0.00 in0.0 mm 0.02 in0.5 mm
08:30 PM 49.8°F9.9°C 48.4°F9.1°C 95% 23.0 mph SE37.0 kmh SE 34.0 mph54.7 kmh 29.69 in1005.4 mb 0.00 in0.0 mm 0.00 in0.0 mm 0.02 in0.5 mm
08:33 PM 49.6°F9.8°C 48.4°F9.1°C 95% 21.0 mph SE33.8 kmh SE 34.0 mph54.7 kmh 29.69 in1005.4 mb 0.00 in0.0 mm 0.00 in0.0 mm 0.02 in0.5 mm
08:36 PM 49.6°F9.8°C 48.4°F9.1°C 95% 21.0 mph SE33.8 kmh SE 34.0 mph54.7 kmh 29.68 in1005.1 mb 0.00 in0.0 mm 0.00 in0.0 mm 0.02 in0.5 mm
08:39 PM 49.6°F9.8°C 48.4°F9.1°C 95% 20.0 mph SE32.2 kmh SE 34.0 mph54.7 kmh 29.68 in1005.1 mb 0.00 in0.0 mm 0.00 in0.0 mm 0.02 in0.5 mm
08:42 PM 49.6°F9.8°C 48.4°F9.1°C 95% 21.0 mph SE33.8 kmh SE 34.0 mph54.7 kmh 29.68 in1005.1 mb 0.00 in0.0 mm 0.00 in0.0 mm 0.02 in0.5 mm
08:45 PM 49.6°F9.8°C 48.4°F9.1°C 95% 22.0 mph SE35.4 kmh SE 36.0 mph57.9 kmh 29.68 in1005.1 mb 0.00 in0.0 mm 0.00 in0.0 mm 0.02 in0.5 mm
08:48 PM 49.6°F9.8°C 48.4°F9.1°C 95% 23.0 mph SE37.0 kmh SE 36.0 mph57.9 kmh 29.68 in1005.1 mb 0.00 in0.0 mm 0.00 in0.0 mm 0.02 in0.5 mm
08:51 PM 49.6°F9.8°C 48.4°F9.1°C 95% 23.0 mph SE37.0 kmh SE 36.0 mph57.9 kmh 29.68 in1005.1 mb 0.00 in0.0 mm 0.00 in0.0 mm 0.02 in0.5 mm
08:54 PM 49.6°F9.8°C 48.4°F9.1°C 95% 23.0 mph SE37.0 kmh SE 36.0 mph57.9 kmh 29.68 in1005.1 mb 0.00 in0.0 mm 0.00 in0.0 mm 0.02 in0.5 mm
08:57 PM 49.6°F9.8°C 48.4°F9.1°C 95% 23.0 mph SSE37.0 kmh SSE 37.0 mph59.5 kmh 29.68 in1005.1 mb 0.00 in0.0 mm 0.00 in0.0 mm 0.02 in0.5 mm
09:00 PM 49.6°F9.8°C 48.4°F9.1°C 95% 23.0 mph SE37.0 kmh SE 37.0 mph59.5 kmh 29.68 in1005.1 mb 0.00 in0.0 mm 0.00 in0.0 mm 0.02 in0.5 mm
09:03 PM 49.6°F9.8°C 48.4°F9.1°C 95% 22.0 mph SE35.4 kmh SE 37.0 mph59.5 kmh 29.68 in1005.1 mb 0.00 in0.0 mm 0.00 in0.0 mm 0.02 in0.5 mm
09:06 PM 49.6°F9.8°C 48.4°F9.1°C 95% 22.0 mph SE35.4 kmh SE 37.0 mph59.5 kmh 29.67 in1004.7 mb 0.00 in0.0 mm 0.00 in0.0 mm 0.02 in0.5 mm
09:09 PM 49.6°F9.8°C 48.4°F9.1°C 95% 21.0 mph SE33.8 kmh SE 35.0 mph56.3 kmh 29.67 in1004.7 mb 0.00 in0.0 mm 0.00 in0.0 mm 0.02 in0.5 mm
09:12 PM 49.6°F9.8°C 48.4°F9.1°C 95% 21.0 mph SE33.8 kmh SE 35.0 mph56.3 kmh 29.67 in1004.7 mb 0.00 in0.0 mm 0.00 in0.0 mm 0.02 in0.5 mm
09:15 PM 49.6°F9.8°C 48.4°F9.1°C 95% 21.0 mph SE33.8 kmh SE 35.0 mph56.3 kmh 29.67 in1004.7 mb 0.00 in0.0 mm 0.00 in0.0 mm 0.02 in0.5 mm
09:18 PM 49.6°F9.8°C 48.4°F9.1°C 95% 21.0 mph SE33.8 kmh SE 34.0 mph54.7 kmh 29.67 in1004.7 mb 0.00 in0.0 mm 0.00 in0.0 mm 0.02 in0.5 mm
09:21 PM 49.6°F9.8°C 48.4°F9.1°C 95% 22.0 mph SE35.4 kmh SE 34.0 mph54.7 kmh 29.66 in1004.4 mb 0.00 in0.0 mm 0.00 in0.0 mm 0.02 in0.5 mm
09:24 PM 49.6°F9.8°C 48.4°F9.1°C 95% 23.0 mph SE37.0 kmh SE 34.0 mph54.7 kmh 29.66 in1004.4 mb 0.00 in0.0 mm 0.00 in0.0 mm 0.02 in0.5 mm
09:27 PM 49.6°F9.8°C 48.4°F9.1°C 95% 23.0 mph SE37.0 kmh SE 36.0 mph57.9 kmh 29.66 in1004.4 mb 0.00 in0.0 mm 0.00 in0.0 mm 0.02 in0.5 mm
09:30 PM 49.8°F9.9°C 48.4°F9.1°C 95% 23.0 mph SE37.0 kmh SE 36.0 mph57.9 kmh 29.66 in1004.4 mb 0.00 in0.0 mm 0.00 in0.0 mm 0.02 in0.5 mm
09:33 PM 49.8°F9.9°C 48.4°F9.1°C 95% 24.0 mph SE38.6 kmh SE 36.0 mph57.9 kmh 29.66 in1004.4 mb 0.00 in0.0 mm 0.00 in0.0 mm 0.02 in0.5 mm
09:36 PM 49.8°F9.9°C 48.4°F9.1°C 95% 24.0 mph SE38.6 kmh SE 37.0 mph59.5 kmh 29.66 in1004.4 mb 0.00 in0.0 mm 0.00 in0.0 mm 0.02 in0.5 mm
09:39 PM 49.6°F9.8°C 48.4°F9.1°C 95% 23.0 mph SE37.0 kmh SE 37.0 mph59.5 kmh 29.66 in1004.4 mb 0.00 in0.0 mm 0.00 in0.0 mm 0.02 in0.5 mm
09:42 PM 49.6°F9.8°C 48.4°F9.1°C 95% 23.0 mph SE37.0 kmh SE 37.0 mph59.5 kmh 29.65 in1004.1 mb 0.00 in0.0 mm 0.00 in0.0 mm 0.02 in0.5 mm
09:45 PM 49.6°F9.8°C 48.4°F9.1°C 95% 23.0 mph SE37.0 kmh SE 36.0 mph57.9 kmh 29.66 in1004.4 mb 0.00 in0.0 mm 0.00 in0.0 mm 0.02 in0.5 mm
09:48 PM 49.6°F9.8°C 48.4°F9.1°C 95% 23.0 mph SE37.0 kmh SE 36.0 mph57.9 kmh 29.65 in1004.1 mb 0.00 in0.0 mm 0.00 in0.0 mm 0.02 in0.5 mm
09:51 PM 49.6°F9.8°C 48.4°F9.1°C 95% 23.0 mph SE37.0 kmh SE 36.0 mph57.9 kmh 29.65 in1004.1 mb 0.00 in0.0 mm 0.00 in0.0 mm 0.02 in0.5 mm
09:54 PM 49.6°F9.8°C 48.4°F9.1°C 95% 23.0 mph SE37.0 kmh SE 36.0 mph57.9 kmh 29.65 in1004.1 mb 0.00 in0.0 mm 0.00 in0.0 mm 0.02 in0.5 mm
09:57 PM 49.6°F9.8°C 48.4°F9.1°C 95% 23.0 mph SE37.0 kmh SE 36.0 mph57.9 kmh 29.65 in1004.1 mb 0.00 in0.0 mm 0.00 in0.0 mm 0.02 in0.5 mm
10:00 PM 49.6°F9.8°C 48.4°F9.1°C 95% 23.0 mph SE37.0 kmh SE 36.0 mph57.9 kmh 29.65 in1004.1 mb 0.00 in0.0 mm 0.00 in0.0 mm 0.02 in0.5 mm
10:03 PM 49.6°F9.8°C 48.4°F9.1°C 95% 23.0 mph SE37.0 kmh SE 35.0 mph56.3 kmh 29.65 in1004.1 mb 0.00 in0.0 mm 0.00 in0.0 mm 0.02 in0.5 mm
10:06 PM 49.6°F9.8°C 48.4°F9.1°C 95% 22.0 mph SE35.4 kmh SE 35.0 mph56.3 kmh 29.65 in1004.1 mb 0.00 in0.0 mm 0.00 in0.0 mm 0.02 in0.5 mm
10:09 PM 49.8°F9.9°C 48.4°F9.1°C 95% 23.0 mph SE37.0 kmh SE 38.0 mph61.2 kmh 29.65 in1004.1 mb 0.00 in0.0 mm 0.00 in0.0 mm 0.02 in0.5 mm
10:12 PM 49.8°F9.9°C 48.4°F9.1°C 95% 23.0 mph SE37.0 kmh SE 38.0 mph61.2 kmh 29.65 in1004.1 mb 0.00 in0.0 mm 0.00 in0.0 mm 0.02 in0.5 mm
10:15 PM 49.8°F9.9°C 48.4°F9.1°C 95% 24.0 mph SE38.6 kmh SE 38.0 mph61.2 kmh 29.64 in1003.7 mb 0.00 in0.0 mm 0.00 in0.0 mm 0.02 in0.5 mm
10:18 PM 49.8°F9.9°C 48.4°F9.1°C 95% 24.0 mph SE38.6 kmh SE 34.0 mph54.7 kmh 29.64 in1003.7 mb 0.00 in0.0 mm 0.00 in0.0 mm 0.02 in0.5 mm
10:21 PM 49.8°F9.9°C 48.4°F9.1°C 95% 23.0 mph SE37.0 kmh SE 34.0 mph54.7 kmh 29.64 in1003.7 mb 0.00 in0.0 mm 0.00 in0.0 mm 0.02 in0.5 mm
10:24 PM 49.8°F9.9°C 48.4°F9.1°C 95% 24.0 mph SE38.6 kmh SE 34.0 mph54.7 kmh 29.64 in1003.7 mb 0.00 in0.0 mm 0.00 in0.0 mm 0.02 in0.5 mm
10:27 PM 49.8°F9.9°C 48.4°F9.1°C 95% 23.0 mph SE37.0 kmh SE 33.0 mph53.1 kmh 29.64 in1003.7 mb 0.00 in0.0 mm 0.00 in0.0 mm 0.02 in0.5 mm
10:30 PM 49.8°F9.9°C 48.4°F9.1°C 95% 22.0 mph SE35.4 kmh SE 32.0 mph51.5 kmh 29.64 in1003.7 mb 0.00 in0.0 mm 0.00 in0.0 mm 0.02 in0.5 mm
10:33 PM 49.8°F9.9°C 48.4°F9.1°C 95% 22.0 mph SE35.4 kmh SE 35.0 mph56.3 kmh 29.64 in1003.7 mb 0.00 in0.0 mm 0.00 in0.0 mm 0.02 in0.5 mm
10:36 PM 49.8°F9.9°C 48.4°F9.1°C 95% 23.0 mph SE37.0 kmh SE 35.0 mph56.3 kmh 29.64 in1003.7 mb 0.00 in0.0 mm 0.00 in0.0 mm 0.02 in0.5 mm
10:39 PM 49.8°F9.9°C 48.4°F9.1°C 95% 23.0 mph SE37.0 kmh SE 35.0 mph56.3 kmh 29.64 in1003.7 mb 0.00 in0.0 mm 0.00 in0.0 mm 0.02 in0.5 mm
10:42 PM 49.8°F9.9°C 48.4°F9.1°C 95% 23.0 mph SE37.0 kmh SE 35.0 mph56.3 kmh 29.63 in1003.4 mb 0.00 in0.0 mm 0.00 in0.0 mm 0.02 in0.5 mm
10:45 PM 49.8°F9.9°C 48.4°F9.1°C 95% 23.0 mph SE37.0 kmh SE 35.0 mph56.3 kmh 29.63 in1003.4 mb 0.00 in0.0 mm 0.00 in0.0 mm 0.02 in0.5 mm
10:48 PM 49.8°F9.9°C 48.4°F9.1°C 95% 23.0 mph SE37.0 kmh SE 35.0 mph56.3 kmh 29.63 in1003.4 mb 0.00 in0.0 mm 0.00 in0.0 mm 0.02 in0.5 mm
10:51 PM 49.8°F9.9°C 48.4°F9.1°C 95% 23.0 mph SE37.0 kmh SE 34.0 mph54.7 kmh 29.63 in1003.4 mb 0.00 in0.0 mm 0.00 in0.0 mm 0.02 in0.5 mm
10:54 PM 49.6°F9.8°C 48.4°F9.1°C 95% 23.0 mph SE37.0 kmh SE 35.0 mph56.3 kmh 29.63 in1003.4 mb 0.00 in0.0 mm 0.00 in0.0 mm 0.02 in0.5 mm
10:57 PM 49.6°F9.8°C 48.4°F9.1°C 95% 24.0 mph SE38.6 kmh SE 36.0 mph57.9 kmh 29.63 in1003.4 mb 0.00 in0.0 mm 0.00 in0.0 mm 0.02 in0.5 mm
11:00 PM 49.6°F9.8°C 48.4°F9.1°C 95% 24.0 mph SE38.6 kmh SE 36.0 mph57.9 kmh 29.63 in1003.4 mb 0.00 in0.0 mm 0.00 in0.0 mm 0.02 in0.5 mm
11:03 PM 49.6°F9.8°C 48.2°F9.0°C 95% 25.0 mph SE40.2 kmh SE 40.0 mph64.4 kmh 29.63 in1003.4 mb 0.00 in0.0 mm 0.00 in0.0 mm 0.02 in0.5 mm
11:06 PM 49.6°F9.8°C 48.6°F9.2°C 96% 25.0 mph SE40.2 kmh SE 40.0 mph64.4 kmh 29.62 in1003.0 mb 0.00 in0.0 mm 0.00 in0.0 mm 0.02 in0.5 mm
11:09 PM 49.6°F9.8°C 48.6°F9.2°C 96% 24.0 mph SE38.6 kmh SE 40.0 mph64.4 kmh 29.62 in1003.0 mb 0.00 in0.0 mm 0.00 in0.0 mm 0.02 in0.5 mm
11:12 PM 49.6°F9.8°C 48.6°F9.2°C 96% 24.0 mph SE38.6 kmh SE 40.0 mph64.4 kmh 29.62 in1003.0 mb 0.00 in0.0 mm 0.00 in0.0 mm 0.02 in0.5 mm
11:15 PM 49.6°F9.8°C 48.6°F9.2°C 96% 23.0 mph SE37.0 kmh SE 40.0 mph64.4 kmh 29.62 in1003.0 mb 0.00 in0.0 mm 0.00 in0.0 mm 0.02 in0.5 mm
11:18 PM 49.6°F9.8°C 48.6°F9.2°C 96% 23.0 mph SE37.0 kmh SE 40.0 mph64.4 kmh 29.62 in1003.0 mb 0.00 in0.0 mm 0.00 in0.0 mm 0.02 in0.5 mm
11:21 PM 49.6°F9.8°C 48.6°F9.2°C 96% 22.0 mph SE35.4 kmh SE 34.0 mph54.7 kmh 29.62 in1003.0 mb 0.00 in0.0 mm 0.00 in0.0 mm 0.02 in0.5 mm
11:24 PM 49.6°F9.8°C 48.6°F9.2°C 96% 22.0 mph SE35.4 kmh SE 34.0 mph54.7 kmh 29.62 in1003.0 mb 0.00 in0.0 mm 0.00 in0.0 mm 0.02 in0.5 mm
11:27 PM 49.6°F9.8°C 48.6°F9.2°C 96% 24.0 mph SE38.6 kmh SE 38.0 mph61.2 kmh 29.62 in1003.0 mb 0.00 in0.0 mm 0.00 in0.0 mm 0.02 in0.5 mm
11:30 PM 49.6°F9.8°C 48.6°F9.2°C 96% 24.0 mph SE38.6 kmh SE 38.0 mph61.2 kmh 29.61 in1002.7 mb 0.00 in0.0 mm 0.00 in0.0 mm 0.02 in0.5 mm
11:33 PM 49.8°F9.9°C 48.4°F9.1°C 95% 24.0 mph SE38.6 kmh SE 38.0 mph61.2 kmh 29.61 in1002.7 mb 0.00 in0.0 mm 0.00 in0.0 mm 0.02 in0.5 mm
11:36 PM 49.6°F9.8°C 48.4°F9.1°C 95% 24.0 mph SE38.6 kmh SE 37.0 mph59.5 kmh 29.61 in1002.7 mb 0.00 in0.0 mm 0.00 in0.0 mm 0.02 in0.5 mm
11:39 PM 49.6°F9.8°C 48.4°F9.1°C 95% 22.0 mph SE35.4 kmh SE 35.0 mph56.3 kmh 29.61 in1002.7 mb 0.00 in0.0 mm 0.00 in0.0 mm 0.02 in0.5 mm
11:42 PM 49.6°F9.8°C 48.4°F9.1°C 95% 23.0 mph SE37.0 kmh SE 37.0 mph59.5 kmh 29.61 in1002.7 mb 0.00 in0.0 mm 0.00 in0.0 mm 0.02 in0.5 mm
11:45 PM 49.6°F9.8°C 48.6°F9.2°C 96% 24.0 mph SE38.6 kmh SE 37.0 mph59.5 kmh 29.61 in1002.7 mb 0.00 in0.0 mm 0.00 in0.0 mm 0.02 in0.5 mm
11:48 PM 49.6°F9.8°C 48.6°F9.2°C 96% 23.0 mph SE37.0 kmh SE 38.0 mph61.2 kmh 29.61 in1002.7 mb 0.00 in0.0 mm 0.00 in0.0 mm 0.02 in0.5 mm
11:51 PM 49.6°F9.8°C 48.6°F9.2°C 96% 24.0 mph SE38.6 kmh SE 38.0 mph61.2 kmh 29.61 in1002.7 mb 0.00 in0.0 mm 0.00 in0.0 mm 0.02 in0.5 mm
11:54 PM 49.6°F9.8°C 48.6°F9.2°C 96% 24.0 mph SE38.6 kmh SE 38.0 mph61.2 kmh 29.60 in1002.4 mb 0.00 in0.0 mm 0.00 in0.0 mm 0.02 in0.5 mm
11:57 PM 49.6°F9.8°C 48.6°F9.2°C 96% 24.0 mph SE38.6 kmh SE 36.0 mph57.9 kmh 29.60 in1002.4 mb 0.00 in0.0 mm 0.00 in0.0 mm 0.02 in0.5 mm